Return to Metar
METAR CYNL 242100Z AUTO 20011KT 9SM CLR 12/07 A2978 RMK AO1 PRESFR SLP104
METAR CYNL 242000Z AUTO 18010G16KT 9SM FEW150 10/05 A2981 RMK AO1 PRESFR SLP118
METAR CYNL 241900Z AUTO 17009KT 9SM FEW190 07/04 A2987 RMK AO1 PRESFR SLP138
METAR CYNL 241800Z AUTO 17009KT 9SM CLR 07/02 A2992 RMK AO1 PRESFR SLP155
METAR CYNL 241700Z AUTO 17010KT 9SM FEW210 06/02 A2997 RMK AO1 PRESFR SLP172
METAR CYNL 241600Z AUTO 15009KT 9SM CLR 05/00 A3002 RMK AO1 PRESFR SLP188
METAR CYNL 241500Z AUTO 15007KT 9SM SCT096 02/M00 A3007 RMK AO1 PRESFR SLP208
METAR CYNL 241400Z AUTO 15004KT 9SM SCT130 M00/M03 A3012 RMK AO1 PRESFR SLP228
METAR CYNL 241300Z AUTO 17004KT 9SM SCT130 M02/M04 A3015 RMK AO1 PRESFR SLP242
METAR CYNL 241200Z AUTO 00000KT 9SM BKN150 M05/M06 A3018 RMK AO1 PRESFR SLP253
METAR CYNL 241100Z AUTO 20003KT 9SM CLR M05/M06 A3020 RMK AO1 SLP260
METAR CYNL 241000Z AUTO 00000KT 9SM FEW140 M05/M06 A3022 RMK AO1 SLP265
METAR CYNL 240900Z AUTO 20002KT 9SM CLR M05/M06 A3024 RMK AO1 SLP271
METAR CYNL 240800Z AUTO 21003KT 9SM CLR M04/M05 A3025 RMK AO1 SLP277
METAR CYNL 240700Z AUTO 00000KT 9SM CLR M03/M04 A3026 RMK AO1 SLP279
SPECI CYNL 240636Z AUTO 21003KT 9SM SCT021 M02/M04 A3026 RMK AO1 SLP282
SPECI CYNL 240613Z AUTO 22003KT 9SM BKN022 M02/M04 A3027 RMK AO1 SLP283
METAR CYNL 240600Z AUTO 23004KT 9SM FEW019 M02/M04 A3027 RMK AO1 SLP283
SPECI CYNL 240543Z AUTO 00000KT 9SM SCT019 M01/M04 A3026 RMK AO1 SLP280
METAR CYNL 240500Z AUTO 25007KT 9SM OVC016 M01/M04 A3027 RMK AO1 SLP282
METAR CYNL 240400Z AUTO 25007KT 9SM OVC017 M00/M03 A3027 RMK AO1 SLP284
METAR CYNL 240300Z AUTO 25006KT 9SM OVC017 M00/M00 A3028 RMK AO1 SLP288
METAR CYNL 240200Z AUTO 28004KT 9SM OVC023 00/M00 A3027 RMK AO1 SLP288
SPECI CYNL 240143Z AUTO 28006KT 9SM BKN024 OVC029 00/M01 A3027 RMK AO1 SLP289
SPECI CYNL 240120Z AUTO 29005KT 9SM OVC029 01/M02 A3027 RMK AO1 SLP288
METAR CYNL 240100Z AUTO 29008KT 9SM OVC031 01/M02 A3027 RMK AO1 SLP288
METAR CYNL 240000Z AUTO 28004KT 9SM OVC034 02/M03 A3026 RMK AO1 SLP285
METAR CYNL 232300Z AUTO 29005KT 9SM BKN033 03/M04 A3027 RMK AO1 SLP286
METAR CYNL 232200Z AUTO 30005KT 260V340 9SM FEW041 02/M05 A3027 RMK AO1 SLP287
SPECI CYNL 232105Z AUTO 20005KT 9SM OVC030 01/M05 A3027 RMK AO1 SLP289
METAR CYNL 232100Z AUTO 21006KT 9SM OVC029 01/M05 A3027 RMK AO1 SLP288
SPECI CYNL 232043Z AUTO 15004KT 9SM BKN028 01/M05 A3027 RMK AO1 SLP289
METAR CYNL 232000Z AUTO 13003KT 9SM CLR M00/M05 A3027 RMK AO1 SLP289
SPECI CYNL 231936Z AUTO 14004KT 9SM SCT022 BKN072 M00/M05 A3027 RMK AO1 SLP289
METAR CYNL 231900Z AUTO 09003KT 9SM BKN020 M01/M06 A3026 RMK AO1 SLP289
SPECI CYNL 231850Z AUTO 13003KT 9SM BKN020 M02/M07 A3026 RMK AO1 SLP289
METAR CYNL 231800Z AUTO 06004KT 030V100 9SM FEW086 M02/M07 A3025 RMK AO1 SLP286
METAR CYNL 231700Z AUTO 08003KT 9SM CLR M04/M08 A3024 RMK AO1 SLP284
SPECI CYNL 231632Z AUTO 05004KT 7SM FEW007 SCT013 BKN110 M04/M09 A3024 RMK AO1 SLP283
SPECI CYNL 231618Z AUTO 01004KT 6SM FEW006 SCT008 BKN011 M05/M09 A3023 RMK AO1 SLP282
SPECI CYNL 231617Z AUTO 01003KT 6SM VV010 M05/M09 A3023 RMK AO1 SLP282
SPECI CYNL 231612Z AUTO 01005KT 7SM VV009 M05/M09 A3023 RMK AO1 SLP282
METAR CYNL 231600Z AUTO 33004KT 6SM VV010 M05/M09 A3023 RMK AO1 SLP282
SPECI CYNL 231505Z AUTO 35003KT 4SM FEW009 BKN012 OVC016 M07/M09 A3022 RMK AO1 PRESRR SLP280
METAR CYNL 231500Z AUTO 01006KT 4SM VV014 M07/M09 A3022 RMK AO1 PRESRR SLP280
SPECI CYNL 231429Z AUTO 34005KT 3SM VV014 M08/M10 A3021 RMK AO1 PRESRR SLP275
SPECI CYNL 231427Z AUTO 35004KT 4SM VV015 M08/M10 A3021 RMK AO1 PRESRR SLP275
SPECI CYNL 231425Z AUTO 35004KT 3SM VV014 M08/M10 A3021 RMK AO1 PRESRR SLP274
METAR CYNL 231400Z AUTO 35004KT 4SM VV019 M08/M10 A3020 RMK AO1 PRESRR SLP272
SPECI CYNL 231330Z AUTO 00006KT 3SM VV016 M09/M11 A3019 RMK AO1 PRESRR SLP267
SPECI CYNL 231328Z AUTO 00005KT 2 1/2SM VV016 M09/M11 A3018 RMK AO1 PRESRR SLP267
SPECI CYNL 231326Z AUTO 00005KT 3SM VV016 M09/M11 A3018 RMK AO1 PRESRR SLP266
METAR CYNL 231300Z AUTO 00007KT 2SM VV021 M09/M11 A3017 RMK AO1 PRESRR SLP264
SPECI CYNL 231248Z AUTO 35007KT 2SM VV017 M09/M11 A3017 RMK AO1 PRESRR SLP262
SPECI CYNL 231247Z AUTO 35007KT 1 3/4SM VV017 M09/M11 A3017 RMK AO1 PRESRR SLP262
SPECI CYNL 231246Z AUTO 35007KT 2SM VV017 M09/M11 A3017 RMK AO1 PRESRR SLP262
SPECI CYNL 231211Z AUTO 00005KT 1 3/4SM VV018 M09/M11 A3016 RMK AO1 PRESRR SLP257
SPECI CYNL 231202Z AUTO 00007KT 2SM VV017 M09/M11 A3015 RMK AO1 PRESRR SLP256
METAR CYNL 231200Z AUTO 35006KT 1 3/4SM VV016 M09/M11 A3015 RMK AO1 PRESRR SLP256
SPECI CYNL 231159Z AUTO 00006KT 1 3/4SM VV016 M09/M11 A3015 RMK AO1 PRESRR SLP255
SPECI CYNL 231158Z AUTO 35006KT 2SM VV016 M09/M11 A3015 RMK AO1 PRESRR SLP255
SPECI CYNL 231155Z AUTO 00006KT 1 3/4SM VV015 M09/M11 A3015 RMK AO1 PRESRR SLP255
SPECI CYNL 231130Z AUTO 00008KT 1 1/2SM VV014 M09/M11 A3014 RMK AO1 PRESRR SLP252
SPECI CYNL 231127Z AUTO 35007KT 1 1/4SM VV013 M09/M11 A3014 RMK AO1 PRESRR SLP251
SPECI CYNL 231122Z AUTO 00007KT 1 1/2SM VV013 M09/M11 A3014 RMK AO1 PRESRR SLP251
SPECI CYNL 231119Z AUTO 00007KT 1 1/4SM VV012 M09/M11 A3014 RMK AO1 PRESRR SLP250
SPECI CYNL 231118Z AUTO 35007KT 1 1/2SM VV012 M09/M11 A3014 RMK AO1 PRESRR SLP250
SPECI CYNL 231117Z AUTO 35007KT 1 1/4SM VV012 M09/M11 A3014 RMK AO1 PRESRR SLP250
SPECI CYNL 231112Z AUTO 35008KT 1 1/2SM VV014 M09/M11 A3014 RMK AO1 PRESRR SLP249
SPECI CYNL 231107Z AUTO 00007KT 1 3/4SM VV016 M09/M11 A3013 RMK AO1 PRESRR SLP249
SPECI CYNL 231101Z AUTO 00007KT 2 1/2SM VV019 M09/M11 A3013 RMK AO1 PRESRR SLP248
METAR CYNL 231100Z AUTO 00007KT 3SM VV020 M09/M11 A3013 RMK AO1 PRESRR SLP247
SPECI CYNL 231050Z AUTO 00007KT 3SM VV022 M09/M11 A3013 RMK AO1 PRESRR SLP246
SPECI CYNL 231047Z AUTO 00006KT 2 1/2SM VV022 M09/M11 A3012 RMK AO1 PRESRR SLP245
SPECI CYNL 231042Z AUTO 00005KT 3SM VV024 M09/M11 A3012 RMK AO1 PRESRR SLP245
SPECI CYNL 231029Z AUTO 00009KT 3SM VV025 M09/M11 A3012 RMK AO1 PRESRR SLP243
SPECI CYNL 231021Z AUTO 00007KT 2 1/2SM VV015 M09/M11 A3012 RMK AO1 PRESRR SLP242
SPECI CYNL 231020Z AUTO 00007KT 2 1/2SM VV014 M09/M11 A3011 RMK AO1 PRESRR SLP242
SPECI CYNL 231011Z AUTO 00008KT 2SM VV015 M09/M11 A3011 RMK AO1 PRESRR SLP240
SPECI CYNL 231006Z AUTO 00006KT 2SM VV014 M09/M11 A3011 RMK AO1 PRESRR SLP239
SPECI CYNL 231002Z AUTO 01010KT 2 1/2SM VV015 M09/M11 A3011 RMK AO1 PRESRR SLP239
METAR CYNL 231000Z AUTO 01010KT 2SM BKN012 OVC015 M09/M11 A3011 RMK AO1 PRESRR SLP238
SPECI CYNL 230954Z AUTO 00007KT 2 1/2SM BKN012 OVC015 M09/M11 A3011 RMK AO1 SLP238
METAR CYNL 230900Z AUTO 01008G15KT 9SM OVC014 M08/M11 A3008 RMK AO1 SLP229
SPECI CYNL 230825Z AUTO 00011KT 9SM BKN014 OVC090 M08/M11 A3007 RMK AO1 PRESRR SLP224
SPECI CYNL 230824Z AUTO 00010G15KT 9SM SCT014 BKN016 OVC090 M08/M11 A3007 RMK AO1 PRESRR SLP224
SPECI CYNL 230823Z AUTO 00009G15KT 9SM BKN014 OVC090 M08/M11 A3007 RMK AO1 PRESRR SLP224
SPECI CYNL 230821Z AUTO 35009G15KT 9SM BKN015 OVC090 M08/M11 A3007 RMK AO1 PRESRR SLP224
SPECI CYNL 230804Z AUTO 00010KT 9SM SCT015 OVC090 M08/M11 A3006 RMK AO1 PRESRR SLP221
METAR CYNL 230800Z AUTO 00009G16KT 9SM BKN016 OVC090 M08/M11 A3006 RMK AO1 PRESRR SLP220
SPECI CYNL 230734Z AUTO 35006KT 9SM BKN015 BKN020 OVC090 M08/M11 A3005 RMK AO1 SLP216
SPECI CYNL 230733Z AUTO 00007KT 9SM BKN014 BKN019 OVC090 M08/M11 A3005 RMK AO1 SLP216
SPECI CYNL 230730Z AUTO 35008KT 9SM BKN015 BKN020 OVC090 M08/M11 A3005 RMK AO1 SLP215
SPECI CYNL 230719Z AUTO 00008KT 9SM BKN014 BKN020 OVC086 M08/M11 A3005 RMK AO1 SLP214
SPECI CYNL 230718Z AUTO 00008G15KT 9SM SCT014 BKN017 OVC086 M08/M11 A3004 RMK AO1 SLP214
METAR CYNL 230700Z AUTO 00006KT 9SM BKN014 OVC082 M08/M11 A3004 RMK AO1 SLP211
SPECI CYNL 230654Z AUTO 00006KT 9SM BKN014 OVC082 M08/M11 A3003 RMK AO1 PRESRR SLP211
SPECI CYNL 230640Z AUTO 00007KT 9SM FEW014 BKN019 OVC082 M08/M11 A3003 RMK AO1 PRESRR SLP208
SPECI CYNL 230622Z AUTO 00007G16KT 9SM SCT020 OVC082 M08/M11 A3002 RMK AO1 PRESRR SLP206
SPECI CYNL 230619Z AUTO 00007G16KT 9SM VV020 M08/M11 A3002 RMK AO1 PRESRR SLP206
METAR CYNL 230600Z AUTO 01007KT 9SM FEW015 SCT020 OVC082 M08/M11 A3002 RMK AO1 PRESRR SLP205
SPECI CYNL 230557Z AUTO 01006KT 9SM SCT018 OVC082 M08/M12 A3002 RMK AO1 PRESRR SLP204
METAR CYNL 230500Z AUTO 02010KT 9SM SCT012 OVC016 M08/M11 A2999 RMK AO1 PRESRR SLP193
SPECI CYNL 230459Z AUTO 01010G15KT 9SM SCT012 OVC016 M08/M11 A2999 RMK AO1 PRESRR SLP193
SPECI CYNL 230433Z AUTO 01009KT 5SM BKN014 OVC019 M07/M10 A2997 RMK AO1 PRESRR SLP188
METAR CYNL 230400Z AUTO 02007KT 9SM OVC017 M07/M10 A2996 RMK AO1 PRESRR SLP185
SPECI CYNL 230339Z AUTO 00011G17KT 9SM SCT014 BKN019 OVC025 M07/M10 A2996 RMK AO1 PRESRR SLP181
SPECI CYNL 230315Z AUTO 02012KT 9SM BKN014 OVC019 M06/M10 A2994 RMK AO1 PRESRR SLP175
SPECI CYNL 230311Z AUTO 01010KT 9SM BKN015 OVC020 M06/M10 A2994 RMK AO1 PRESRR SLP174
SPECI CYNL 230303Z AUTO 00009KT 8SM BKN014 OVC020 M06/M09 A2993 RMK AO1 PRESRR SLP173
METAR CYNL 230300Z AUTO 00009KT 9SM BKN015 OVC020 M06/M09 A2993 RMK AO1 PRESRR SLP172
METAR CYNL 230200Z AUTO 00011G16KT 4SM BKN016 OVC023 M05/M08 A2990 RMK AO1 PRESRR SLP160
METAR CYNL 230100Z AUTO 01010G17KT 9SM OVC016 M05/M08 A2987 RMK AO1 PRESRR SLP150
SPECI CYNL 230002Z AUTO 02012G18KT 9SM OVC015 M05/M08 A2985 RMK AO1 PRESRR SLP139
METAR CYNL 230000Z AUTO 02008G16KT 9SM OVC014 M05/M08 A2985 RMK AO1 PRESRR SLP139
METAR CYNL 222300Z AUTO 02008G16KT 9SM OVC014 M04/M07 A2981 RMK AO1 PRESRR SLP126
METAR CYNL 222200Z AUTO 01013G18KT 9SM OVC013 M04/M07 A2977 RMK AO1 PRESRR SLP114
METAR CYNL 222100Z AUTO 03013KT 9SM OVC014 M03/M06 A2974 RMK AO1 PRESRR SLP099
SPECI CYNL 222018Z AUTO 02013KT 9SM BKN014 OVC020 M02/M05 A2972 RMK AO1 PRESRR SLP091
SPECI CYNL 222017Z AUTO 03012KT 9SM SCT014 OVC019 M02/M05 A2972 RMK AO1 PRESRR SLP091
METAR CYNL 222000Z AUTO 04011G19KT 9SM BKN013 OVC021 M02/M05 A2971 RMK AO1 PRESRR SLP088
SPECI CYNL 221958Z AUTO 04009G19KT 9SM BKN013 OVC020 M02/M05 A2971 RMK AO1 PRESRR SLP088
SPECI CYNL 221948Z AUTO 04013G20KT 9SM SCT011 BKN015 OVC018 M02/M05 A2970 RMK AO1 PRESRR SLP087
SPECI CYNL 221938Z AUTO 02011KT 5SM SCT010 BKN013 OVC017 M02/M04 A2970 RMK AO1 PRESRR SLP085
SPECI CYNL 221930Z AUTO 04012KT 3SM FEW010 SCT013 BKN017 M02/M04 A2969 RMK AO1 PRESRR SLP084
SPECI CYNL 221929Z AUTO 04012KT 2 1/2SM SCT011 BKN016 OVC031 M02/M04 A2969 RMK AO1 PRESRR SLP084
SPECI CYNL 221928Z AUTO 04010G16KT 3SM SCT011 BKN017 OVC031 M02/M04 A2969 RMK AO1 PRESRR SLP084
SPECI CYNL 221927Z AUTO 04011KT 2 1/2SM SCT011 BKN017 OVC031 M02/M04 A2969 RMK AO1 PRESRR SLP083
SPECI CYNL 221925Z AUTO 03009G16KT 1 1/2SM SCT010 BKN013 BKN017 M02/M04 A2969 RMK AO1 PRESRR SLP083
SPECI CYNL 221924Z AUTO 04008G16KT 1 3/4SM SCT010 BKN017 OVC031 M02/M04 A2969 RMK AO1 PRESRR SLP083
SPECI CYNL 221919Z AUTO 04010G18KT 2SM FEW010 SCT013 BKN017 M02/M04 A2969 RMK AO1 PRESRR SLP082
SPECI CYNL 221918Z AUTO 04010G18KT 1 3/4SM SCT012 BKN017 OVC031 M02/M04 A2969 RMK AO1 PRESRR SLP082
SPECI CYNL 221916Z AUTO 04011G18KT 2 1/2SM SCT012 BKN017 OVC031 M02/M04 A2969 RMK AO1 PRESRR SLP082
SPECI CYNL 221915Z AUTO 03012G18KT 3SM SCT012 BKN016 BKN020 M02/M04 A2969 RMK AO1 PRESRR SLP082
SPECI CYNL 221910Z AUTO 02013KT 2 1/2SM VV022 M02/M04 A2969 RMK AO1 PRESRR SLP082
SPECI CYNL 221907Z AUTO 04012KT 3SM VV024 M02/M04 A2969 RMK AO1 PRESRR SLP081
SPECI CYNL 221905Z AUTO 04011KT 4SM VV027 M02/M04 A2969 RMK AO1 PRESRR SLP081
METAR CYNL 221900Z AUTO 05012KT 5SM SCT012 BKN017 OVC022 M02/M05 A2968 RMK AO1 PRESRR SLP080
SPECI CYNL 221852Z AUTO 05012KT 2 1/2SM SCT012 BKN015 OVC020 M02/M04 A2968 RMK AO1 SLP079
SPECI CYNL 221847Z AUTO 05010G18KT 5SM SCT013 BKN015 OVC021 M02/M04 A2968 RMK AO1 SLP078
METAR CYNL 221800Z AUTO 03014KT 9SM BKN012 OVC016 M02/M04 A2966 RMK AO1 SLP072
SPECI CYNL 221730Z AUTO 05015G23KT 9SM FEW008 OVC011 M01/M03 A2966 RMK AO1 SLP069
SPECI CYNL 221719Z AUTO 05016KT 9SM OVC010 M01/M03 A2966 RMK AO1 SLP069
SPECI CYNL 221708Z AUTO 05013G22KT 9SM BKN009 OVC011 M01/M03 A2965 RMK AO1 SLP068
SPECI CYNL 221707Z AUTO 05013G22KT 9SM SCT008 OVC010 M01/M03 A2965 RMK AO1 SLP068
METAR CYNL 221700Z AUTO 05012G24KT 9SM BKN008 OVC011 M01/M03 A2965 RMK AO1 SLP067
SPECI CYNL 221649Z AUTO 04015KT 9SM BKN008 OVC010 M01/M02 A2965 RMK AO1 SLP064
SPECI CYNL 221644Z AUTO 05010G25KT 9SM SCT008 OVC010 M01/M02 A2965 RMK AO1 SLP064
SPECI CYNL 221617Z AUTO 06015KT 4SM BKN007 OVC016 M01/M02 A2964 RMK AO1 SLP062
SPECI CYNL 221615Z AUTO 05012G19KT 3SM SCT007 BKN011 OVC016 M01/M02 A2964 RMK AO1 SLP062
SPECI CYNL 221608Z AUTO 06014G26KT 2 1/2SM SCT007 BKN012 OVC017 M01/M02 A2964 RMK AO1 SLP061
SPECI CYNL 221602Z AUTO 05012G26KT 3SM FEW006 SCT008 BKN012 M01/M02 A2964 RMK AO1 SLP061
METAR CYNL 221600Z AUTO 05014G26KT 2 1/2SM SCT006 BKN011 BKN013 M01/M02 A2964 RMK AO1 SLP061
SPECI CYNL 221557Z AUTO 05013G19KT 2SM FEW006 SCT009 BKN011 M01/M02 A2964 RMK AO1 SLP060
SPECI CYNL 221556Z AUTO 06013G19KT 1 3/4SM SCT006 BKN010 BKN013 M01/M02 A2964 RMK AO1 SLP060
SPECI CYNL 221555Z AUTO 05013G19KT 2SM SCT006 BKN011 OVC014 M01/M02 A2964 RMK AO1 SLP060
SPECI CYNL 221544Z AUTO 06017G22KT 2SM VV010 M01/M02 A2964 RMK AO1 SLP060
SPECI CYNL 221541Z AUTO 05014G22KT 1 1/2SM VV010 M01/M01 A2964 RMK AO1 SLP060
SPECI CYNL 221540Z AUTO 05013G21KT 1 1/4SM VV010 M01/M02 A2964 RMK AO1 SLP060
SPECI CYNL 221536Z AUTO 05015G24KT 1 1/4SM BKN005 BKN009 OVC012 M01/M01 A2964 RMK AO1 SLP060
SPECI CYNL 221525Z AUTO 05011G21KT 1 3/4SM OVC005 M00/M01 A2964 RMK AO1 SLP059
SPECI CYNL 221518Z AUTO 05014G22KT 2 1/2SM OVC005 M00/M01 A2964 RMK AO1 SLP059
METAR CYNL 221500Z AUTO 06014G20KT 9SM OVC005 M00/M01 A2964 RMK AO1 SLP059
METAR CYNL 221400Z AUTO 05016G25KT 9SM OVC005 00/M00 A2963 RMK AO1 PRESFR SLP057
METAR CYNL 221300Z AUTO 06016G24KT 8SM OVC006 00/M00 A2966 RMK AO1 SLP063
METAR CYNL 221200Z AUTO 07016KT 9SM OVC006 01/00 A2967 RMK AO1 PRESFR SLP066
METAR CYNL 221100Z AUTO 06014G20KT 7SM OVC005 01/00 A2970 RMK AO1 PRESFR SLP073
METAR CYNL 221000Z AUTO 06015G22KT 8SM OVC005 01/01 A2972 RMK AO1 PRESFR SLP079
SPECI CYNL 220949Z AUTO 07018G24KT 4SM OVC005 01/01 A2973 RMK AO1 PRESFR SLP081
METAR CYNL 220900Z AUTO 07014G23KT 5SM OVC004 01/01 A2975 RMK AO1 PRESFR SLP089
METAR CYNL 220800Z AUTO 07012KT 6SM OVC004 01/01 A2978 RMK AO1 PRESFR SLP099
SPECI CYNL 220722Z AUTO 07011G20KT 6SM OVC004 01/01 A2981 RMK AO1 PRESFR SLP108
METAR CYNL 220700Z AUTO 07016KT 6SM OVC005 01/01 A2982 RMK AO1 PRESFR SLP110
SPECI CYNL 220610Z AUTO 07017KT 4SM BKN008 OVC033 02/01 A2983 RMK AO1 PRESFR SLP116
SPECI CYNL 220603Z AUTO 07015G21KT 4SM SCT008 BKN021 BKN030 02/01 A2984 RMK AO1 PRESFR SLP117
METAR CYNL 220600Z AUTO 07016G22KT 5SM FEW008 SCT015 BKN030 02/01 A2984 RMK AO1 PRESFR SLP118
SPECI CYNL 220557Z AUTO 07015G22KT 6SM FEW008 SCT021 BKN030 02/01 A2984 RMK AO1 PRESFR SLP118
SPECI CYNL 220556Z AUTO 07015G22KT 7SM FEW008 BKN029 BKN036 02/01 A2984 RMK AO1 PRESFR SLP118
SPECI CYNL 220554Z AUTO 07016G22KT 7SM FEW016 BKN029 BKN036 02/01 A2984 RMK AO1 PRESFR SLP119
SPECI CYNL 220553Z AUTO 07015G22KT 8SM FEW020 BKN030 BKN036 02/01 A2984 RMK AO1 PRESFR SLP119
SPECI CYNL 220552Z AUTO 07015G22KT 9SM FEW021 BKN029 BKN036 02/01 A2984 RMK AO1 PRESFR SLP119
SPECI CYNL 220550Z AUTO 06014G22KT 9SM FEW022 BKN030 BKN037 02/01 A2985 RMK AO1 PRESFR SLP119
SPECI CYNL 220549Z AUTO 06014G22KT 9SM FEW022 BKN029 02/01 A2985 RMK AO1 PRESFR SLP119
SPECI CYNL 220545Z AUTO 07016G22KT 8SM OVC030 02/01 A2985 RMK AO1 PRESFR SLP120
METAR CYNL 220500Z AUTO 06013G20KT 4SM FEW021 OVC029 03/01 A2987 RMK AO1 PRESFR SLP128
SPECI CYNL 220449Z AUTO 07014G19KT 4SM BKN025 OVC032 03/01 A2988 RMK AO1 SLP130
SPECI CYNL 220448Z AUTO 07014G19KT 4SM SCT025 OVC032 03/01 A2988 RMK AO1 SLP131
SPECI CYNL 220443Z AUTO 07013G19KT 4SM BKN025 OVC032 03/01 A2988 RMK AO1 SLP132
SPECI CYNL 220437Z AUTO 07014G22KT 4SM FEW023 OVC031 03/01 A2989 RMK AO1 SLP133
SPECI CYNL 220433Z AUTO 07012G22KT 5SM OVC029 03/01 A2989 RMK AO1 SLP133
SPECI CYNL 220432Z AUTO 07012G22KT 5SM FEW022 OVC030 03/01 A2989 RMK AO1 SLP133
SPECI CYNL 220431Z AUTO 06015G22KT 5SM OVC029 03/01 A2989 RMK AO1 SLP133
SPECI CYNL 220429Z AUTO 07014G22KT 4SM SCT025 OVC032 03/01 A2989 RMK AO1 SLP133
SPECI CYNL 220425Z AUTO 06014G20KT 3SM OVC029 03/01 A2989 RMK AO1 SLP133
SPECI CYNL 220413Z AUTO 06013G21KT 5SM SCT026 OVC035 04/01 A2990 RMK AO1 SLP135
SPECI CYNL 220403Z AUTO 06014G21KT 3SM VV029 04/00 A2990 RMK AO1 SLP136
METAR CYNL 220400Z AUTO 07012G21KT 5SM VV031 04/00 A2990 RMK AO1 SLP137
METAR CYNL 220300Z AUTO 06011G19KT 9SM FEW024 SCT040 05/M00 A2992 RMK AO1 PRESFR SLP142
SPECI CYNL 220252Z AUTO 06011KT 9SM SCT024 06/M01 A2992 RMK AO1 SLP146
SPECI CYNL 220250Z AUTO 06010G16KT 9SM VV027 06/M00 A2992 RMK AO1 SLP147
SPECI CYNL 220248Z AUTO 06011G16KT 9SM VV023 06/M01 A2993 RMK AO1 SLP147
METAR CYNL 220200Z AUTO 07009KT 9SM FEW009 06/M01 A2994 RMK AO1 SLP153
SPECI CYNL 220154Z AUTO 06011KT 9SM FEW009 SCT026 06/M01 A2994 RMK AO1 SLP155
SPECI CYNL 220152Z AUTO 07009G15KT 5SM VV019 07/M01 A2994 RMK AO1 SLP156
SPECI CYNL 220151Z AUTO 07009G15KT 3SM FEW018 07/M01 A2994 RMK AO1 SLP155
SPECI CYNL 220149Z AUTO 07009G16KT 2 1/2SM FEW027 07/M01 A2994 RMK AO1 SLP156
METAR CYNL 220100Z AUTO 07011KT 9SM CLR 08/M02 A2993 RMK AO1 SLP151
METAR CYNL 220000Z AUTO 07010KT 9SM CLR 09/M03 A2994 RMK AO1 SLP156
METAR CYNL 212300Z AUTO 07010KT 9SM CLR 11/M04 A2995 RMK AO1 SLP158
METAR CYNL 212200Z AUTO 06012KT 9SM CLR 11/M04 A2996 RMK AO1 SLP163
METAR CYNL 212100Z AUTO 08012KT 9SM CLR 12/M04 A2997 RMK AO1 SLP166
SPECI CYNL 212004Z AUTO 08011G16KT 9SM CLR 12/M04 A2999 RMK AO1 WSHFT (20)04 SLP170
METAR CYNL 212000Z AUTO 09009G16KT 9SM CLR 12/M02 A2999 RMK AO1 SLP171
SPECI CYNL 211939Z AUTO 08010KT 050V110 9SM CLR 12/M03 A2999 RMK AO1 WSHFT (19)39 SLP171
METAR CYNL 211900Z AUTO 08006KT 9SM CLR 12/M03 A2999 RMK AO1 SLP171
METAR CYNL 211800Z AUTO 03008KT 9SM CLR 12/M02 A2999 RMK AO1 SLP169
METAR CYNL 211700Z AUTO 04006KT 9SM CLR 12/M03 A2998 RMK AO1 SLP167
METAR CYNL 211600Z AUTO 03007KT 9SM FEW140 11/M02 A2998 RMK AO1 SLP166
METAR CYNL 211500Z AUTO 01003KT 9SM CLR 08/M01 A2998 RMK AO1 SLP168
METAR CYNL 211400Z AUTO 00000KT 9SM CLR 04/M02 A2999 RMK AO1 SLP171
METAR CYNL 211300Z AUTO 23004KT 9SM FEW088 00/M03 A2999 RMK AO1 SLP173
METAR CYNL 211200Z AUTO 27003KT 9SM CLR M01/M04 A2998 RMK AO1 SLP172
METAR CYNL 211100Z AUTO 23003KT 9SM CLR M02/M04 A2998 RMK AO1 SLP170
METAR CYNL 211000Z AUTO 23003KT 9SM CLR M01/M04 A2997 RMK AO1 SLP166
METAR CYNL 210900Z AUTO 25003KT 9SM CLR M01/M03 A2997 RMK AO1 SLP164
METAR CYNL 210800Z AUTO 25003KT 9SM CLR M01/M04 A2997 RMK AO1 SLP166
METAR CYNL 210700Z AUTO 22003KT 9SM CLR M00/M03 A2997 RMK AO1 SLP165
METAR CYNL 210600Z AUTO 23002KT 9SM CLR 01/M03 A2997 RMK AO1 SLP164
METAR CYNL 210500Z AUTO 21004KT 9SM CLR 02/M03 A2997 RMK AO1 SLP167
METAR CYNL 210400Z AUTO 22005KT 9SM CLR 04/M03 A2996 RMK AO1 SLP163
METAR CYNL 210300Z AUTO 22004KT 9SM SCT150 07/M02 A2996 RMK AO1 SLP159
METAR CYNL 210200Z AUTO 22005KT 9SM FEW110 09/M02 A2995 RMK AO1 SLP153
METAR CYNL 210100Z AUTO 21006KT 9SM CLR 09/M02 A2995 RMK AO1 SLP153
METAR CYNL 210000Z AUTO 23006KT 9SM CLR 09/M02 A2995 RMK AO1 SLP155
METAR CYNL 202300Z AUTO 22008KT 9SM CLR 10/M02 A2993 RMK AO1 SLP152
METAR CYNL 202200Z AUTO 20011G18KT 9SM CLR 11/M01 A2992 RMK AO1 SLP145
METAR CYNL 202100Z AUTO 19012KT 9SM CLR 10/M01 A2992 RMK AO1 SLP146
METAR CYNL 202000Z AUTO 19014G20KT 9SM CLR 10/M01 A2993 RMK AO1 SLP148
METAR CYNL 201900Z AUTO 19012G17KT 9SM FEW094 SCT230 09/M01 A2993 RMK AO1 SLP148
METAR CYNL 201800Z AUTO 19011KT 9SM FEW170 08/M01 A2993 RMK AO1 SLP150
METAR CYNL 201700Z AUTO 18007KT 9SM FEW190 07/M01 A2993 RMK AO1 SLP151
METAR CYNL 201600Z AUTO 19008G17KT 9SM FEW078 07/M01 A2995 RMK AO1 SLP156
METAR CYNL 201500Z AUTO 19011G17KT 9SM FEW080 06/M02 A2996 RMK AO1 SLP164
METAR CYNL 201400Z AUTO 19010G15KT 9SM CLR 05/M02 A2997 RMK AO1 SLP166
METAR CYNL 201300Z AUTO 18006KT 9SM CLR 03/M03 A2998 RMK AO1 SLP171
METAR CYNL 201200Z AUTO 19006KT 9SM CLR 02/M05 A3000 RMK AO1 SLP174
METAR CYNL 201100Z AUTO 20007KT 9SM CLR 02/M06 A3001 RMK AO1 SLP176
METAR CYNL 201000Z AUTO 21005KT 9SM CLR 03/M06 A3002 RMK AO1 SLP178
METAR CYNL 200900Z AUTO 20007KT 9SM CLR 03/M06 A3003 RMK AO1 SLP182
METAR CYNL 200800Z AUTO 20007KT 9SM CLR 04/M06 A3004 RMK AO1 SLP185
METAR CYNL 200700Z AUTO 20007KT 9SM CLR 04/M05 A3004 RMK AO1 SLP187
METAR CYNL 200600Z AUTO 20006KT 9SM CLR 04/M05 A3005 RMK AO1 SLP189
METAR CYNL 200500Z AUTO 18008KT 9SM CLR 05/M05 A3005 RMK AO1 SLP190
METAR CYNL 200400Z AUTO 18004KT 9SM CLR 04/M05 A3005 RMK AO1 SLP193
METAR CYNL 200300Z AUTO 17004KT 9SM CLR 05/M05 A3006 RMK AO1 SLP196
METAR CYNL 200200Z AUTO 18005KT 9SM CLR 07/M04 A3008 RMK AO1 SLP201
METAR CYNL 200100Z AUTO 20006KT 9SM CLR 10/M07 A3009 RMK AO1 SLP205
METAR CYNL 200000Z AUTO 22010KT 9SM CLR 11/M06 A3008 RMK AO1 SLP207
METAR CYNL 192300Z AUTO 19010KT 9SM CLR 10/M05 A3009 RMK AO1 SLP213
METAR CYNL 192200Z AUTO 18012KT 9SM CLR 10/M04 A3011 RMK AO1 SLP219
METAR CYNL 192100Z AUTO 23008G16KT 9SM CLR 11/M06 A3012 RMK AO1 SLP222
METAR CYNL 192000Z AUTO 20005KT 9SM CLR 10/M05 A3013 RMK AO1 SLP225
METAR CYNL 191900Z AUTO 22006KT 9SM CLR 09/M05 A3015 RMK AO1 SLP230
METAR CYNL 191800Z AUTO 21005KT 9SM CLR 09/M06 A3016 RMK AO1 SLP234
METAR CYNL 191700Z AUTO 24005KT 9SM CLR 08/M05 A3017 RMK AO1 SLP239
METAR CYNL 191600Z AUTO 20006KT 150V250 9SM CLR 07/M05 A3017 RMK AO1 SLP242
METAR CYNL 191500Z AUTO 22004KT 9SM SCT050 04/M06 A3017 RMK AO1 SLP245
METAR CYNL 191400Z AUTO 23007KT 9SM CLR 01/M06 A3018 RMK AO1 SLP246
METAR CYNL 191300Z AUTO 21002KT 9SM CLR M02/M04 A3018 RMK AO1 SLP248
METAR CYNL 191200Z AUTO 22005KT 9SM CLR M05/M06 A3017 RMK AO1 SLP248
METAR CYNL 191100Z AUTO 25002KT 9SM CLR M06/M07 A3016 RMK AO1 SLP245
METAR CYNL 191000Z AUTO 22004KT 9SM FEW062 M04/M07 A3015 RMK AO1 SLP241
METAR CYNL 190900Z AUTO 22003KT 9SM FEW062 M04/M07 A3013 RMK AO1 SLP234
METAR CYNL 190800Z AUTO 22004KT 9SM CLR M03/M07 A3012 RMK AO1 SLP230
METAR CYNL 190700Z AUTO 22005KT 9SM CLR M02/M06 A3011 RMK AO1 SLP224
METAR CYNL 190600Z AUTO 22006KT 9SM SCT049 M02/M05 A3010 RMK AO1 SLP218
METAR CYNL 190500Z AUTO 22004KT 9SM FEW064 M02/M05 A3008 RMK AO1 SLP215
METAR CYNL 190400Z AUTO 21004KT 9SM CLR M02/M05 A3007 RMK AO1 SLP210
METAR CYNL 190300Z AUTO 21004KT 9SM CLR M00/M05 A3006 RMK AO1 SLP206
METAR CYNL 190200Z AUTO 25007KT 9SM FEW032 SCT046 02/M04 A3005 RMK AO1 SLP200
METAR CYNL 190100Z AUTO 24009G16KT 9SM BKN032 OVC039 02/M04 A3003 RMK AO1 PRESRR SLP193
METAR CYNL 190000Z AUTO 25007KT 9SM OVC034 02/M04 A3001 RMK AO1 SLP186
METAR CYNL 182300Z AUTO 25009G16KT 9SM BKN034 02/M04 A3000 RMK AO1 SLP182
METAR CYNL 182200Z AUTO 26010G19KT 9SM BKN031 OVC049 03/M04 A2998 RMK AO1 PRESRR SLP176
SPECI CYNL 182102Z AUTO 26010G26KT 3SM SCT016 BKN032 BKN060 02/M01 A2996 RMK AO1 WSHFT (20)59 PRESRR SLP169
METAR CYNL 182100Z AUTO 26013G26KT 3SM SCT016 BKN026 BKN060 02/M01 A2996 RMK AO1 WSHFT (20)59 PRESRR SLP168
SPECI CYNL 182059Z AUTO 26012G26KT 6SM SCT016 BKN026 BKN060 02/M01 A2996 RMK AO1 WSHFT (20)59 PRESRR SLP168
SPECI CYNL 182057Z AUTO 25011G26KT 9SM SCT015 BKN029 BKN060 02/M01 A2995 RMK AO1 SLP167
SPECI CYNL 182048Z AUTO 22008G17KT 9SM FEW014 SCT026 BKN033 03/M01 A2995 RMK AO1 SLP163
SPECI CYNL 182038Z AUTO 22011G17KT 9SM FEW011 BKN029 BKN038 02/M01 A2994 RMK AO1 SLP163
SPECI CYNL 182033Z AUTO 22009G18KT 4SM FEW011 SCT018 BKN030 02/M00 A2994 RMK AO1 SLP163
SPECI CYNL 182032Z AUTO 21010G18KT 2 1/2SM FEW011 SCT018 BKN028 02/M00 A2994 RMK AO1 SLP163
SPECI CYNL 182030Z AUTO 22011G18KT 1 1/2SM FEW012 BKN026 BKN035 02/M00 A2994 RMK AO1 SLP163
SPECI CYNL 182029Z AUTO 22011G22KT 2SM FEW011 BKN026 BKN034 02/M01 A2994 RMK AO1 SLP163
METAR CYNL 182000Z AUTO 23011G18KT 9SM BKN033 03/M03 A2993 RMK AO1 SLP158
METAR CYNL 181900Z AUTO 21013G19KT 9SM FEW025 SCT066 04/M02 A2991 RMK AO1 SLP150
SPECI CYNL 181816Z AUTO 20012G19KT 9SM SCT014 BKN044 04/M01 A2990 RMK AO1 SLP147
METAR CYNL 181800Z AUTO 22008G19KT 8SM FEW010 OVC019 02/00 A2990 RMK AO1 SLP148
SPECI CYNL 181757Z AUTO 22010G19KT 3SM VV011 02/00 A2990 RMK AO1 SLP147
SPECI CYNL 181756Z AUTO 22011G19KT 1 3/4SM VV012 02/00 A2990 RMK AO1 SLP147
SPECI CYNL 181755Z AUTO 22012G19KT 1SM FEW011 OVC019 03/00 A2990 RMK AO1 SLP147
SPECI CYNL 181754Z AUTO 22013G19KT 3/4SM FEW011 OVC019 03/00 A2990 RMK AO1 SLP147
SPECI CYNL 181753Z AUTO 22013G19KT 1SM FEW011 OVC019 03/M00 A2990 RMK AO1 SLP146
SPECI CYNL 181752Z AUTO 20012G19KT 2SM OVC019 03/M01 A2990 RMK AO1 SLP146
METAR CYNL 181700Z AUTO 19011G19KT 9SM BKN018 OVC022 03/M01 A2989 RMK AO1 SLP142
SPECI CYNL 181622Z AUTO 19011G18KT 9SM BKN015 OVC020 03/M01 A2988 RMK AO1 SLP140
METAR CYNL 181600Z AUTO 18011KT 9SM BKN012 OVC016 02/M00 A2988 RMK AO1 SLP140
SPECI CYNL 181506Z AUTO 19010G16KT 9SM OVC010 02/M01 A2988 RMK AO1 SLP140
METAR CYNL 181500Z AUTO 18009G18KT 9SM OVC009 02/M00 A2988 RMK AO1 SLP140
SPECI CYNL 181452Z AUTO 18008G17KT 9SM OVC009 01/M00 A2988 RMK AO1 SLP139
METAR CYNL 181400Z AUTO 18013G19KT 9SM OVC011 01/M01 A2987 RMK AO1 SLP139
METAR CYNL 181300Z AUTO 17012KT 9SM OVC014 01/M02 A2988 RMK AO1 SLP141
SPECI CYNL 181244Z AUTO 18010G19KT 9SM OVC014 01/M02 A2988 RMK AO1 SLP140
METAR CYNL 181200Z AUTO 18013G18KT 9SM BKN016 OVC019 01/M02 A2989 RMK AO1 SLP142
SPECI CYNL 181110Z AUTO 18012KT 9SM BKN024 OVC068 01/M04 A2989 RMK AO1 SLP141
METAR CYNL 181100Z AUTO 18012G19KT 9SM BKN026 01/M04 A2989 RMK AO1 SLP141
SPECI CYNL 181059Z AUTO 18012G19KT 9SM BKN026 01/M04 A2989 RMK AO1 SLP141
SPECI CYNL 181025Z AUTO 17011G18KT 9SM SCT026 BKN084 02/M05 A2988 RMK AO1 SLP138
SPECI CYNL 181008Z AUTO 17012G18KT 9SM BKN026 02/M05 A2988 RMK AO1 SLP138
METAR CYNL 181000Z AUTO 18014G21KT 9SM SCT027 BKN078 02/M05 A2988 RMK AO1 SLP137
METAR CYNL 180900Z AUTO 17014G21KT 9SM OVC060 02/M06 A2989 RMK AO1 SLP138
METAR CYNL 180800Z AUTO 17015G23KT 9SM OVC056 03/M08 A2989 RMK AO1 SLP140
METAR CYNL 180700Z AUTO 16012KT 9SM FEW072 03/M09 A2990 RMK AO1 SLP144
METAR CYNL 180600Z AUTO 16011G18KT 9SM SCT076 03/M09 A2991 RMK AO1 SLP147
METAR CYNL 180500Z AUTO 15013G19KT 9SM BKN090 04/M09 A2991 RMK AO1 SLP149
METAR CYNL 180400Z AUTO 14011KT 9SM CLR 03/M07 A2992 RMK AO1 SLP154
METAR CYNL 180300Z AUTO 13011G19KT 9SM FEW110 SCT150 04/M07 A2994 RMK AO1 SLP160
METAR CYNL 180200Z AUTO 13012G20KT 9SM FEW100 04/M08 A2995 RMK AO1 SLP163
METAR CYNL 180100Z AUTO 14011G19KT 9SM CLR 05/M08 A2995 RMK AO1 SLP165
METAR CYNL 172300Z AUTO 13015G21KT 9SM CLR 06/M08 A2996 RMK AO1 SLP172
METAR CYNL 172200Z AUTO 14013G21KT 9SM FEW170 07/M08 A2996 RMK AO1 PRESFR SLP169
METAR CYNL 172100Z AUTO 12012G23KT 9SM FEW160 06/M08 A2998 RMK AO1 SLP177
METAR CYNL 172000Z AUTO 12014G23KT 9SM FEW190 05/M09 A2998 RMK AO1 SLP177
METAR CYNL 171900Z AUTO 12014G20KT 9SM CLR 05/M09 A2998 RMK AO1 SLP179
METAR CYNL 171800Z AUTO 12011G19KT 9SM FEW150 03/M09 A3000 RMK AO1 SLP185
METAR CYNL 171700Z AUTO 13012G19KT 9SM FEW180 03/M10 A3001 RMK AO1 SLP188
METAR CYNL 171600Z AUTO 13013KT 9SM FEW230 03/M10 A3002 RMK AO1 SLP191
METAR CYNL 171500Z AUTO 11013KT 9SM CLR 01/M10 A3002 RMK AO1 PRESFR SLP195
METAR CYNL 171400Z AUTO 12011KT 9SM CLR M00/M09 A3005 RMK AO1 SLP207
METAR CYNL 171300Z AUTO 10007KT 9SM CLR M02/M07 A3005 RMK AO1 SLP208
METAR CYNL 171200Z AUTO 10006KT 9SM CLR M03/M05 A3005 RMK AO1 SLP209
METAR CYNL 171100Z AUTO 09009KT 9SM OVC130 M03/M04 A3006 RMK AO1 SLP210
METAR CYNL 171000Z AUTO 08008KT 9SM CLR M03/M04 A3007 RMK AO1 PRESFR SLP212
METAR CYNL 170900Z AUTO 07008KT 9SM CLR M02/M04 A3009 RMK AO1 SLP218
METAR CYNL 170800Z AUTO 07008KT 9SM CLR M02/M04 A3009 RMK AO1 SLP220
METAR CYNL 170700Z AUTO 07008KT 9SM OVC084 M01/M03 A3010 RMK AO1 SLP222
METAR CYNL 170600Z AUTO 07007KT 9SM FEW050 BKN084 M01/M03 A3011 RMK AO1 SLP226
METAR CYNL 170500Z AUTO 07007KT 9SM FEW008 SCT010 OVC042 M01/M02 A3012 RMK AO1 SLP229
SPECI CYNL 170456Z AUTO 07008KT 9SM FEW008 SCT010 OVC042 M01/M02 A3012 RMK AO1 SLP230
SPECI CYNL 170438Z AUTO 08009KT 9SM FEW008 BKN010 OVC043 M01/M02 A3013 RMK AO1 SLP231
SPECI CYNL 170437Z AUTO 07008KT 9SM BKN009 OVC043 M01/M02 A3013 RMK AO1 SLP231
SPECI CYNL 170436Z AUTO 07008KT 9SM FEW008 BKN010 OVC043 M01/M02 A3013 RMK AO1 SLP231
SPECI CYNL 170435Z AUTO 07007KT 9SM BKN009 OVC043 M01/M02 A3013 RMK AO1 SLP231
SPECI CYNL 170424Z AUTO 06007KT 9SM BKN010 OVC044 M01/M03 A3012 RMK AO1 SLP230
SPECI CYNL 170410Z AUTO 06005KT 9SM BKN009 M01/M03 A3013 RMK AO1 SLP232
SPECI CYNL 170407Z AUTO 06006KT 9SM SCT009 BKN011 M01/M03 A3013 RMK AO1 SLP233
METAR CYNL 170400Z AUTO 07005KT 9SM SCT009 M02/M03 A3013 RMK AO1 SLP233
SPECI CYNL 170349Z AUTO 06006KT 9SM SCT009 M01/M03 A3013 RMK AO1 SLP233
SPECI CYNL 170346Z AUTO 07006KT 9SM SCT009 BKN011 M01/M03 A3013 RMK AO1 SLP233
SPECI CYNL 170320Z AUTO 07007KT 9SM BKN009 M01/M03 A3014 RMK AO1 SLP234
SPECI CYNL 170316Z AUTO 07007KT 9SM SCT010 BKN012 M01/M03 A3014 RMK AO1 SLP235
METAR CYNL 170300Z AUTO 07006KT 9SM FEW009 BKN030 M01/M03 A3014 RMK AO1 SLP235
SPECI CYNL 170247Z AUTO 05006KT 9SM SCT009 OVC030 M01/M03 A3013 RMK AO1 SLP233
SPECI CYNL 170230Z AUTO 05006KT 9SM OVC009 M01/M03 A3014 RMK AO1 SLP234
METAR CYNL 170200Z AUTO 05005KT 9SM OVC011 M00/M03 A3013 RMK AO1 SLP233
METAR CYNL 170100Z AUTO 07007KT 9SM OVC013 00/M02 A3013 RMK AO1 SLP231
SPECI CYNL 170008Z AUTO 07006KT 9SM OVC014 01/M02 A3013 RMK AO1 SLP231
METAR CYNL 170000Z AUTO 05005KT 9SM OVC015 01/M03 A3013 RMK AO1 SLP230
SPECI CYNL 162316Z AUTO 07008KT 9SM OVC015 01/M02 A3013 RMK AO1 SLP229
METAR CYNL 162300Z AUTO 07007KT 9SM OVC014 01/M02 A3012 RMK AO1 SLP229
METAR CYNL 162200Z AUTO 07005KT 9SM OVC010 01/M02 A3013 RMK AO1 SLP231
SPECI CYNL 162150Z AUTO 09005KT 9SM OVC010 01/M02 A3013 RMK AO1 SLP230
METAR CYNL 162100Z AUTO 09004KT 9SM OVC008 01/M01 A3013 RMK AO1 SLP232
METAR CYNL 162000Z AUTO 09006KT 9SM OVC008 00/M02 A3012 RMK AO1 SLP228
METAR CYNL 161900Z AUTO 08007KT 9SM OVC008 01/M02 A3011 RMK AO1 SLP225
METAR CYNL 161800Z AUTO 08008KT 9SM OVC009 01/M01 A3012 RMK AO1 SLP225
METAR CYNL 161700Z AUTO 09008KT 8SM BKN008 OVC010 01/M01 A3012 RMK AO1 SLP226
METAR CYNL 161600Z AUTO 09008KT 9SM BKN006 OVC008 01/M01 A3012 RMK AO1 SLP228
SPECI CYNL 161522Z AUTO 08005KT 3SM BKN007 BKN009 OVC014 01/M01 A3014 RMK AO1 SLP231
SPECI CYNL 161513Z AUTO 09005KT 2SM VV007 00/M01 A3014 RMK AO1 SLP231
SPECI CYNL 161502Z AUTO 12005KT 1 3/4SM VV009 M00/M01 A3014 RMK AO1 SLP232
METAR CYNL 161500Z AUTO 11006KT 2SM VV011 M00/M01 A3014 RMK AO1 SLP232
SPECI CYNL 161458Z AUTO 12006KT 2SM VV012 M00/M01 A3014 RMK AO1 SLP231
SPECI CYNL 161457Z AUTO 11005KT 2SM FEW005 SCT006 BKN008 M00/M01 A3014 RMK AO1 SLP232
SPECI CYNL 161456Z AUTO 11005KT 1 3/4SM SCT005 BKN008 BKN010 M00/M01 A3014 RMK AO1 SLP232
SPECI CYNL 161455Z AUTO 11005KT 2SM FEW005 SCT006 BKN008 M00/M01 A3014 RMK AO1 SLP232
SPECI CYNL 161451Z AUTO 10006KT 1 1/2SM SCT005 BKN008 OVC010 M00/M01 A3014 RMK AO1 SLP232
SPECI CYNL 161447Z AUTO 11003KT 1 1/4SM FEW005 BKN007 OVC011 M00/M01 A3014 RMK AO1 SLP232
SPECI CYNL 161446Z AUTO 12004KT 1 1/2SM FEW005 OVC008 M00/M01 A3014 RMK AO1 SLP232
SPECI CYNL 161427Z AUTO 14004KT 1 1/4SM VV007 M00/M01 A3015 RMK AO1 SLP235
SPECI CYNL 161425Z AUTO 12004KT 1 1/2SM VV008 M00/M01 A3015 RMK AO1 SLP235
SPECI CYNL 161419Z AUTO 13004KT 1 1/4SM VV008 M00/M02 A3015 RMK AO1 SLP235
SPECI CYNL 161418Z AUTO 13005KT 1 1/2SM VV008 M00/M02 A3015 RMK AO1 SLP235
SPECI CYNL 161417Z AUTO 14005KT 1 1/4SM VV008 M00/M02 A3015 RMK AO1 SLP235
SPECI CYNL 161410Z AUTO 14004KT 1 3/4SM BKN008 M00/M02 A3015 RMK AO1 SLP235
SPECI CYNL 161407Z AUTO 15005KT 2 1/2SM BKN008 00/M02 A3015 RMK AO1 SLP235
SPECI CYNL 161404Z AUTO 15005KT 3SM SCT008 BKN011 00/M02 A3015 RMK AO1 SLP234
SPECI CYNL 161403Z AUTO 15005KT 2 1/2SM SCT008 BKN014 00/M02 A3015 RMK AO1 SLP234
SPECI CYNL 161401Z AUTO 14005KT 2 1/2SM VV009 00/M02 A3015 RMK AO1 SLP233
METAR CYNL 161400Z AUTO 14006KT 3SM VV009 00/M02 A3015 RMK AO1 SLP233
SPECI CYNL 161358Z AUTO 15005KT 4SM VV009 00/M03 A3014 RMK AO1 SLP231
SPECI CYNL 161355Z AUTO 14006KT 5SM VV011 00/M03 A3014 RMK AO1 SLP231
SPECI CYNL 161353Z AUTO 14007KT 4SM FEW009 00/M03 A3014 RMK AO1 SLP231
METAR CYNL 161300Z AUTO 16003KT 9SM FEW060 00/M04 A3014 RMK AO1 SLP229
METAR CYNL 161200Z AUTO 12004KT 9SM CLR M00/M04 A3013 RMK AO1 SLP223
METAR CYNL 161100Z AUTO 11003KT 9SM CLR M01/M04 A3013 RMK AO1 SLP223
METAR CYNL 161000Z AUTO 00000KT 9SM CLR M01/M04 A3013 RMK AO1 SLP222
METAR CYNL 160900Z AUTO 18004KT 9SM CLR M00/M04 A3014 RMK AO1 SLP224
METAR CYNL 160800Z AUTO 17004KT 9SM CLR M00/M04 A3013 RMK AO1 SLP224
METAR CYNL 160700Z AUTO 18005KT 9SM FEW098 01/M03 A3013 RMK AO1 SLP223
METAR CYNL 160600Z AUTO 18003KT 9SM CLR 01/M04 A3013 RMK AO1 SLP222
METAR CYNL 160500Z AUTO 17004KT 9SM CLR 01/M03 A3012 RMK AO1 SLP222
METAR CYNL 160400Z AUTO 19004KT 9SM CLR 03/M03 A3011 RMK AO1 SLP220
METAR CYNL 160300Z AUTO 18005KT 9SM CLR 03/M03 A3010 RMK AO1 SLP216
METAR CYNL 160200Z AUTO 17005KT 9SM CLR 05/M02 A3009 RMK AO1 SLP212
METAR CYNL 160100Z AUTO 18008KT 9SM CLR 07/M02 A3007 RMK AO1 SLP208
METAR CYNL 160000Z AUTO 16010G16KT 9SM CLR 08/M02 A3006 RMK AO1 SLP203
METAR CYNL 152300Z AUTO 18011KT 9SM CLR 09/M02 A3005 RMK AO1 SLP199
METAR CYNL 152200Z AUTO 20008KT 9SM CLR 09/M02 A3005 RMK AO1 SLP199
METAR CYNL 152100Z AUTO 19010G18KT 9SM CLR 08/M02 A3004 RMK AO1 SLP196
METAR CYNL 152000Z AUTO 20012G18KT 9SM CLR 08/M02 A3003 RMK AO1 SLP194
METAR CYNL 151900Z AUTO 20012G17KT 9SM CLR 07/M03 A3003 RMK AO1 SLP194
METAR CYNL 151800Z AUTO 19010KT 9SM CLR 05/M03 A3003 RMK AO1 SLP193
METAR CYNL 151700Z AUTO 18011KT 9SM CLR 03/M03 A3002 RMK AO1 SLP193
METAR CYNL 151600Z AUTO 19010G17KT 9SM CLR 02/M04 A3002 RMK AO1 SLP193
METAR CYNL 151500Z AUTO 17010G16KT 9SM SCT014 M00/M04 A3002 RMK AO1 SLP196
SPECI CYNL 151433Z AUTO 17009KT 9SM FEW012 SCT017 BKN044 M01/M04 A3003 RMK AO1 SLP198
SPECI CYNL 151408Z AUTO 17009G15KT 9SM SCT010 BKN016 M02/M04 A3003 RMK AO1 SLP200
METAR CYNL 151400Z AUTO 17009G16KT 9SM BKN010 BKN035 M02/M04 A3003 RMK AO1 SLP199
SPECI CYNL 151334Z AUTO 17011KT 3SM OVC012 M03/M04 A3003 RMK AO1 SLP201
SPECI CYNL 151326Z AUTO 16008G15KT 2SM FEW006 BKN012 OVC016 M03/M04 A3003 RMK AO1 SLP201
SPECI CYNL 151317Z AUTO 17010G16KT 1 3/4SM FEW006 SCT008 OVC012 M03/M04 A3003 RMK AO1 SLP200
SPECI CYNL 151316Z AUTO 17012KT 2 1/2SM FEW006 SCT008 OVC012 M03/M04 A3003 RMK AO1 SLP200
SPECI CYNL 151312Z AUTO 16011KT 4SM SCT007 BKN010 OVC013 M03/M04 A3003 RMK AO1 SLP199
SPECI CYNL 151311Z AUTO 16011G16KT 2 1/2SM SCT007 BKN009 OVC014 M03/M04 A3003 RMK AO1 SLP199
SPECI CYNL 151310Z AUTO 16011G16KT 2SM SCT007 BKN010 OVC014 M03/M04 A3003 RMK AO1 SLP199
SPECI CYNL 151305Z AUTO 16010KT 1 3/4SM SCT006 BKN009 BKN011 M03/M04 A3003 RMK AO1 SLP200
SPECI CYNL 151304Z AUTO 16011KT 1 1/2SM VV010 M03/M04 A3003 RMK AO1 SLP200
SPECI CYNL 151303Z AUTO 16010KT 1 1/4SM VV009 M03/M04 A3003 RMK AO1 SLP200
SPECI CYNL 151302Z AUTO 16010KT 3/4SM VV008 M03/M04 A3003 RMK AO1 SLP201
METAR CYNL 151300Z AUTO 16010KT 1/2SM VV006 M03/M04 A3003 RMK AO1 SLP201
SPECI CYNL 151243Z AUTO 15007KT 5/8SM VV009 M03/M05 A3003 RMK AO1 SLP200
SPECI CYNL 151242Z AUTO 15008KT 3/4SM VV010 M03/M05 A3003 RMK AO1 SLP200
SPECI CYNL 151238Z AUTO 15007KT 1 1/4SM VV011 M03/M05 A3003 RMK AO1 SLP201
SPECI CYNL 151236Z AUTO 15007KT 1 3/4SM VV012 M03/M05 A3003 RMK AO1 SLP200
SPECI CYNL 151232Z AUTO 15006KT 2 1/2SM VV011 M03/M05 A3003 RMK AO1 SLP200
SPECI CYNL 151230Z AUTO 16007KT 2 1/2SM FEW011 SCT014 OVC025 M03/M05 A3003 RMK AO1 SLP200
SPECI CYNL 151227Z AUTO 16006KT 4SM FEW009 SCT014 OVC025 M03/M05 A3003 RMK AO1 SLP200
SPECI CYNL 151226Z AUTO 15006KT 4SM FEW010 SCT014 OVC025 M03/M05 A3003 RMK AO1 SLP200
SPECI CYNL 151210Z AUTO 15006KT 6SM FEW009 BKN015 OVC025 M04/M05 A3003 RMK AO1 SLP201
SPECI CYNL 151209Z AUTO 15006KT 5SM FEW010 BKN015 BKN023 M04/M05 A3003 RMK AO1 SLP200
SPECI CYNL 151206Z AUTO 15008KT 3SM VV014 M04/M05 A3003 RMK AO1 SLP200
SPECI CYNL 151204Z AUTO 15007KT 2SM VV016 M04/M05 A3003 RMK AO1 SLP201
METAR CYNL 151200Z AUTO 15008KT 1 3/4SM VV016 M04/M05 A3003 RMK AO1 SLP201
SPECI CYNL 151157Z AUTO 15005KT 2 1/2SM VV017 M04/M05 A3003 RMK AO1 SLP200
SPECI CYNL 151154Z AUTO 15007KT 3SM VV017 M04/M06 A3003 RMK AO1 SLP200
SPECI CYNL 151127Z AUTO 15007KT 3SM FEW008 BKN025 M04/M06 A3003 RMK AO1 SLP199
SPECI CYNL 151124Z AUTO 15007KT 2SM FEW008 BKN025 M04/M06 A3003 RMK AO1 SLP199
SPECI CYNL 151123Z AUTO 15008KT 1 3/4SM FEW008 BKN025 M04/M06 A3003 RMK AO1 SLP199
SPECI CYNL 151122Z AUTO 15008KT 1 3/4SM FEW008 SCT025 M04/M06 A3003 RMK AO1 SLP199
SPECI CYNL 151121Z AUTO 15007KT 2SM FEW008 SCT025 M04/M06 A3003 RMK AO1 SLP199
SPECI CYNL 151119Z AUTO 16009KT 2 1/2SM SCT025 M03/M06 A3003 RMK AO1 SLP199
METAR CYNL 151100Z AUTO 15009KT 9SM FEW028 SCT070 M03/M06 A3003 RMK AO1 SLP200
SPECI CYNL 151031Z AUTO 16008KT 7SM FEW008 BKN050 M03/M06 A3003 RMK AO1 SLP201
METAR CYNL 151000Z AUTO 15009KT 9SM FEW028 OVC052 M03/M06 A3004 RMK AO1 SLP202
SPECI CYNL 150913Z AUTO 15007G16KT 9SM FEW009 SCT058 M03/M05 A3005 RMK AO1 SLP204
METAR CYNL 150900Z AUTO 14009KT 9SM FEW013 SCT040 M03/M05 A3005 RMK AO1 SLP204
SPECI CYNL 150818Z AUTO 15008KT 8SM FEW008 SCT010 M03/M05 A3005 RMK AO1 SLP205
SPECI CYNL 150814Z AUTO 15009G16KT 4SM FEW008 SCT013 BKN020 M03/M05 A3005 RMK AO1 SLP205
SPECI CYNL 150811Z AUTO 14009G16KT 3SM VV014 M03/M05 A3005 RMK AO1 SLP205
SPECI CYNL 150810Z AUTO 14009G16KT 3SM VV015 M03/M05 A3005 RMK AO1 SLP205
SPECI CYNL 150809Z AUTO 14008G16KT 2 1/2SM VV015 M03/M05 A3005 RMK AO1 SLP205
SPECI CYNL 150807Z AUTO 15008G16KT 2 1/2SM VV013 M03/M05 A3005 RMK AO1 SLP205
SPECI CYNL 150806Z AUTO 14008G16KT 3SM VV012 M03/M05 A3005 RMK AO1 SLP205
METAR CYNL 150800Z AUTO 16011G16KT 4SM FEW007 M02/M05 A3005 RMK AO1 SLP206
SPECI CYNL 150707Z AUTO 16009G16KT 6SM FEW007 SCT013 M02/M06 A3006 RMK AO1 SLP207
SPECI CYNL 150702Z AUTO 17011KT 5SM FEW007 SCT012 BKN016 M02/M06 A3006 RMK AO1 SLP208
METAR CYNL 150700Z AUTO 17011KT 5SM VV011 M02/M06 A3006 RMK AO1 SLP207
SPECI CYNL 150657Z AUTO 17010G17KT 5SM VV013 M02/M06 A3006 RMK AO1 SLP207
SPECI CYNL 150656Z AUTO 17010G17KT 5SM FEW008 BKN016 M02/M06 A3006 RMK AO1 SLP207
SPECI CYNL 150653Z AUTO 17011G17KT 7SM FEW008 SCT015 M02/M06 A3006 RMK AO1 SLP208
SPECI CYNL 150651Z AUTO 17011G17KT 9SM FEW010 SCT015 M02/M06 A3006 RMK AO1 SLP207
SPECI CYNL 150641Z AUTO 16013G18KT 5SM VV015 M02/M06 A3006 RMK AO1 SLP208
SPECI CYNL 150637Z AUTO 17010G17KT 5SM VV011 M02/M06 A3006 RMK AO1 SLP208
SPECI CYNL 150631Z AUTO 17012G17KT 6SM FEW007 SCT013 M02/M06 A3006 RMK AO1 SLP207
SPECI CYNL 150629Z AUTO 17012G18KT 6SM SCT013 M02/M06 A3006 RMK AO1 SLP207
SPECI CYNL 150624Z AUTO 17009G21KT 4SM VV013 M01/M07 A3006 RMK AO1 SLP208
METAR CYNL 150600Z AUTO 17016G21KT 9SM CLR M01/M09 A3006 RMK AO1 SLP208
METAR CYNL 150500Z AUTO 16010G18KT 9SM CLR M00/M10 A3007 RMK AO1 SLP210
METAR CYNL 150400Z AUTO 16015KT 9SM CLR M00/M08 A3007 RMK AO1 SLP214
METAR CYNL 150300Z AUTO 16010KT 9SM CLR 01/M08 A3008 RMK AO1 SLP216
METAR CYNL 150200Z AUTO 15008KT 9SM CLR 00/M08 A3007 RMK AO1 SLP217
METAR CYNL 150100Z AUTO 15009KT 9SM OVC039 01/M08 A3008 RMK AO1 SLP220
METAR CYNL 150000Z AUTO 15011G18KT 9SM OVC041 01/M07 A3008 RMK AO1 SLP223
METAR CYNL 142300Z AUTO 17013G19KT 9SM BKN042 02/M09 A3008 RMK AO1 SLP227
METAR CYNL 142200Z AUTO 17014G21KT 9SM SCT044 03/M10 A3009 RMK AO1 SLP230
METAR CYNL 142100Z AUTO 17014G24KT 9SM BKN041 02/M08 A3010 RMK AO1 SLP232
METAR CYNL 142000Z AUTO 17014G22KT 9SM OVC038 02/M07 A3012 RMK AO1 SLP238
METAR CYNL 141900Z AUTO 16012G17KT 9SM OVC036 01/M08 A3013 RMK AO1 SLP242
METAR CYNL 141800Z AUTO 17011G18KT 9SM OVC038 01/M09 A3015 RMK AO1 SLP250
METAR CYNL 141700Z AUTO 17015G22KT 9SM OVC039 M01/M10 A3015 RMK AO1 SLP253
METAR CYNL 141600Z AUTO 16010G16KT 9SM OVC037 M02/M11 A3016 RMK AO1 SLP256
METAR CYNL 141500Z AUTO 16012G19KT 9SM FEW039 M04/M13 A3018 RMK AO1 SLP263
METAR CYNL 141400Z AUTO 16006KT 9SM CLR M07/M15 A3018 RMK AO1 SLP268
METAR CYNL 141300Z AUTO 15006KT 9SM CLR M09/M16 A3019 RMK AO1 SLP270
METAR CYNL 141200Z AUTO 15004KT 9SM CLR M11/M17 A3020 RMK AO1 SLP272
METAR CYNL 141100Z AUTO 15004KT 9SM CLR M11/M17 A3020 RMK AO1 SLP273
METAR CYNL 141000Z AUTO 15005KT 9SM CLR M10/M17 A3021 RMK AO1 SLP275
METAR CYNL 140900Z AUTO 16004KT 9SM CLR M11/M18 A3022 RMK AO1 SLP279
METAR CYNL 140800Z AUTO 15004KT 9SM CLR M11/M17 A3023 RMK AO1 SLP281
METAR CYNL 140700Z AUTO 13005KT 9SM CLR M11/M17 A3024 RMK AO1 SLP286
METAR CYNL 140600Z AUTO 14005KT 9SM CLR M10/M17 A3025 RMK AO1 SLP292
METAR CYNL 140500Z AUTO 14008KT 9SM CLR M09/M17 A3026 RMK AO1 SLP294
METAR CYNL 140400Z AUTO 13007KT 9SM CLR M09/M17 A3026 RMK AO1 SLP297
METAR CYNL 140300Z AUTO 13008KT 9SM CLR M08/M16 A3027 RMK AO1 SLP300
METAR CYNL 140200Z AUTO 12009KT 9SM CLR M07/M16 A3027 RMK AO1 SLP303
METAR CYNL 140100Z AUTO 15010G16KT 9SM CLR M04/M15 A3028 RMK AO1 SLP306
METAR CYNL 140000Z AUTO 15011KT 9SM CLR M03/M15 A3029 RMK AO1 SLP315
METAR CYNL 132300Z AUTO 15012G17KT 9SM CLR M03/M15 A3030 RMK AO1 SLP322
METAR CYNL 132200Z AUTO 14012KT 9SM CLR M03/M16 A3029 RMK AO1 SLP321
METAR CYNL 132100Z AUTO 13011KT 9SM CLR M03/M16 A3030 RMK AO1 SLP323
METAR CYNL 132000Z AUTO 15012G17KT 9SM CLR M04/M16 A3031 RMK AO1 SLP328
METAR CYNL 131900Z AUTO 16009G15KT 9SM CLR M05/M17 A3031 RMK AO1 SLP328
METAR CYNL 131800Z AUTO 16008KT 9SM CLR M06/M18 A3032 RMK AO1 SLP331
METAR CYNL 131700Z AUTO 15009KT 9SM CLR M08/M19 A3031 RMK AO1 SLP329
METAR CYNL 131600Z AUTO 16007KT 9SM CLR M09/M19 A3031 RMK AO1 SLP327
METAR CYNL 131500Z AUTO 15006KT 9SM CLR M12/M20 A3031 RMK AO1 SLP324
METAR CYNL 131400Z AUTO ///// 9SM CLR M16/M22 A3029 RMK AO1 SLP323
METAR CYNL 131300Z AUTO 13003KT 9SM CLR M20/M25 A3028 RMK AO1 PRESRR SLP319
METAR CYNL 131200Z AUTO 10003KT 9SM CLR M24/M28 A3025 RMK AO1 SLP312
METAR CYNL 131100Z AUTO 00000KT 9SM CLR M25/M29 A3024 RMK AO1 SLP308
METAR CYNL 131000Z AUTO 00000KT 9SM CLR M25/M29 A3022 RMK AO1 SLP302
METAR CYNL 130900Z AUTO 06002KT 9SM CLR M24/M29 A3021 RMK AO1 SLP295
METAR CYNL 130800Z AUTO 06003KT 9SM CLR M22/M27 A3019 RMK AO1 SLP286
METAR CYNL 130700Z AUTO 00000KT 9SM CLR M23/M29 A3017 RMK AO1 PRESRR SLP282
METAR CYNL 130600Z AUTO 00000KT 9SM CLR M21/M27 A3015 RMK AO1 PRESRR SLP273
METAR CYNL 130500Z AUTO 00000KT 9SM CLR M18/M24 A3012 RMK AO1 SLP260
METAR CYNL 130400Z AUTO 05006KT 9SM CLR M15/M24 A3010 RMK AO1 PRESRR SLP251
METAR CYNL 130300Z AUTO 35005KT 9SM CLR M14/M23 A3007 RMK AO1 SLP242
METAR CYNL 130200Z AUTO 35004KT 9SM CLR M11/M22 A3005 RMK AO1 PRESRR SLP237
METAR CYNL 130100Z AUTO 31006KT 9SM CLR M08/M23 A3003 RMK AO1 SLP234
METAR CYNL 130000Z AUTO 35006KT 9SM CLR M07/M22 A3001 RMK AO1 SLP231
METAR CYNL 122300Z AUTO 28007KT 9SM CLR M07/M22 A3000 RMK AO1 SLP228
METAR CYNL 122200Z AUTO 30009KT 9SM CLR M07/M23 A2999 RMK AO1 SLP225
METAR CYNL 122100Z AUTO 35009KT 9SM CLR M07/M22 A2998 RMK AO1 SLP222
METAR CYNL 122000Z AUTO 29010KT 260V330 9SM CLR M08/M22 A2998 RMK AO1 SLP223
METAR CYNL 121900Z AUTO 31007KT 9SM CLR M09/M23 A2998 RMK AO1 SLP224
METAR CYNL 121800Z AUTO 31006KT 9SM CLR M10/M23 A2998 RMK AO1 SLP224
METAR CYNL 121700Z AUTO 29008KT 9SM CLR M11/M23 A2999 RMK AO1 SLP226
METAR CYNL 121600Z AUTO 32007KT 9SM CLR M12/M23 A2998 RMK AO1 SLP224
METAR CYNL 121500Z AUTO 00000KT 9SM CLR M15/M23 A2997 RMK AO1 SLP222
METAR CYNL 121400Z AUTO 21002KT 9SM CLR M22/M27 A2996 RMK AO1 SLP223
METAR CYNL 121300Z AUTO 23003KT 9SM CLR M25/M29 A2996 RMK AO1 SLP224
METAR CYNL 121200Z AUTO 24004KT 9SM CLR M27/M31 A2996 RMK AO1 SLP222
METAR CYNL 121100Z AUTO 26004KT 9SM CLR M27/M31 A2996 RMK AO1 SLP222
METAR CYNL 121000Z AUTO 28005KT 240V320 9SM CLR M27/M31 A2996 RMK AO1 SLP218
METAR CYNL 120900Z AUTO 29004KT 9SM CLR M27/M31 A2995 RMK AO1 SLP218
METAR CYNL 120800Z AUTO 29005KT 9SM CLR M27/M32 A2996 RMK AO1 SLP219
METAR CYNL 120700Z AUTO 30003KT 9SM CLR M26/M30 A2995 RMK AO1 SLP217
METAR CYNL 120600Z AUTO 25003KT 9SM CLR M25/M31 A2995 RMK AO1 SLP216
METAR CYNL 120500Z AUTO 00000KT 9SM CLR M25/M30 A2996 RMK AO1 SLP217
METAR CYNL 120400Z AUTO 24003KT 9SM CLR M22/M29 A2995 RMK AO1 SLP213
METAR CYNL 120300Z AUTO 33004KT 9SM CLR M18/M27 A2995 RMK AO1 SLP207
SPECI CYNL 120214Z AUTO 35003KT 3SM CLR M16/M26 A2994 RMK AO1 SLP204
SPECI CYNL 120211Z AUTO 35003KT 2 1/2SM CLR M16/M26 A2994 RMK AO1 SLP204
METAR CYNL 120200Z AUTO 35005KT 7SM CLR M16/M26 A2994 RMK AO1 SLP203
SPECI CYNL 120157Z AUTO 34004KT 3SM CLR M16/M26 A2994 RMK AO1 SLP204
SPECI CYNL 120156Z AUTO 34004KT 2 1/2SM CLR M16/M26 A2994 RMK AO1 SLP204
SPECI CYNL 120154Z AUTO 34004KT 1 1/2SM CLR M15/M26 A2994 RMK AO1 SLP203
SPECI CYNL 120151Z AUTO 34004KT 1 1/4SM CLR M15/M26 A2994 RMK AO1 SLP203
SPECI CYNL 120149Z AUTO 34004KT 1 1/2SM CLR M15/M26 A2994 RMK AO1 SLP203
SPECI CYNL 120148Z AUTO 34005KT 2SM CLR M15/M26 A2994 RMK AO1 SLP203
SPECI CYNL 120130Z AUTO 34005KT 4SM CLR M14/M26 A2994 RMK AO1 SLP202
SPECI CYNL 120128Z AUTO 34005KT 2SM CLR M14/M26 A2994 RMK AO1 SLP202
SPECI CYNL 120127Z AUTO 34005KT 1 1/2SM CLR M14/M26 A2994 RMK AO1 SLP201
SPECI CYNL 120125Z AUTO 34005KT 1 1/4SM CLR M14/M26 A2994 RMK AO1 SLP201
SPECI CYNL 120124Z AUTO 34005KT 2 1/2SM CLR M14/M26 A2994 RMK AO1 SLP201
METAR CYNL 120100Z AUTO 35007KT 9SM CLR M13/M25 A2994 RMK AO1 SLP200
METAR CYNL 120000Z AUTO 00005KT 9SM CLR M12/M25 A2994 RMK AO1 SLP201
METAR CYNL 112300Z AUTO 33007KT 9SM CLR M12/M24 A2994 RMK AO1 SLP201
METAR CYNL 112200Z AUTO 35006KT 9SM CLR M12/M23 A2993 RMK AO1 SLP199
METAR CYNL 112100Z AUTO 00009KT 9SM CLR M12/M23 A2992 RMK AO1 SLP197
METAR CYNL 112000Z AUTO 35011G17KT 9SM CLR M12/M23 A2991 RMK AO1 SLP193
METAR CYNL 111900Z AUTO 31008KT 9SM CLR M12/M23 A2990 RMK AO1 SLP188
METAR CYNL 111800Z AUTO 34009G15KT 9SM CLR M13/M22 A2989 RMK AO1 SLP184
METAR CYNL 111700Z AUTO 00007KT 9SM FEW028 M13/M22 A2987 RMK AO1 SLP180
METAR CYNL 111600Z AUTO 33010KT 9SM FEW024 M14/M21 A2986 RMK AO1 SLP175
METAR CYNL 111500Z AUTO ///// 9SM CLR M15/M21 A2984 RMK AO1 SLP171
METAR CYNL 111400Z AUTO 34008KT 9SM CLR M16/M21 A2985 RMK AO1 SLP172
METAR CYNL 111300Z AUTO 28004KT 9SM CLR M18/M22 A2984 RMK AO1 SLP169
METAR CYNL 111200Z AUTO 29005KT 9SM OVC044 M18/M22 A2984 RMK AO1 SLP169
METAR CYNL 111100Z AUTO 29004KT 9SM OVC045 M19/M23 A2984 RMK AO1 SLP168
METAR CYNL 111000Z AUTO 28005KT 9SM SCT046 M20/M24 A2984 RMK AO1 SLP171
METAR CYNL 110900Z AUTO 27004KT 9SM CLR M19/M23 A2986 RMK AO1 PRESFR SLP174
METAR CYNL 110800Z AUTO 27007KT 9SM CLR M18/M23 A2988 RMK AO1 PRESFR SLP181
METAR CYNL 110700Z AUTO 27006KT 9SM CLR M18/M22 A2990 RMK AO1 PRESFR SLP188
METAR CYNL 110600Z AUTO 27007KT 9SM CLR M17/M22 A2992 RMK AO1 SLP196
METAR CYNL 110500Z AUTO 28006KT 9SM CLR M17/M22 A2993 RMK AO1 SLP200
METAR CYNL 110400Z AUTO 27005KT 9SM CLR M17/M22 A2994 RMK AO1 SLP203
METAR CYNL 110300Z AUTO 27005KT 9SM CLR M16/M22 A2995 RMK AO1 SLP207
METAR CYNL 110200Z AUTO 29005KT 9SM CLR M14/M21 A2997 RMK AO1 SLP211
METAR CYNL 110100Z AUTO ///// 9SM CLR M13/M21 A2998 RMK AO1 SLP215
METAR CYNL 110000Z AUTO 30009KT 9SM CLR M12/M21 A3000 RMK AO1 SLP220
METAR CYNL 102300Z AUTO 31010G20KT 9SM CLR M12/M21 A3001 RMK AO1 SLP225
METAR CYNL 102200Z AUTO 29012KT 9SM CLR M12/M21 A3002 RMK AO1 SLP226
METAR CYNL 102100Z AUTO 28007G16KT 9SM CLR M12/M21 A3001 RMK AO1 SLP224
METAR CYNL 102000Z AUTO 29009G15KT 9SM CLR M12/M21 A3001 RMK AO1 WSHFT (19)48 SLP220
SPECI CYNL 101948Z AUTO 32010KT 9SM CLR M12/M22 A3001 RMK AO1 WSHFT (19)48 SLP217
SPECI CYNL 101925Z AUTO 34011KT 9SM CLR M13/M22 A3000 RMK AO1 WSHFT (19)25 SLP216
METAR CYNL 101900Z AUTO 33010G17KT 9SM CLR M13/M22 A3001 RMK AO1 SLP218
METAR CYNL 101800Z AUTO ///// 9SM CLR M14/M22 A3000 RMK AO1 SLP213
METAR CYNL 101700Z AUTO ///// 9SM CLR M14/M22 A2998 RMK AO1 PRESRR SLP209
METAR CYNL 101600Z AUTO ///// 9SM CLR M15/M22 A2996 RMK AO1 SLP200
METAR CYNL 101500Z AUTO ///// 9SM CLR M16/M22 A2995 RMK AO1 SLP196
METAR CYNL 101400Z AUTO ///// 9SM CLR M17/M21 A2994 RMK AO1 SLP192
METAR CYNL 101300Z AUTO 34006KT 9SM BKN045 M16/M20 A2993 RMK AO1 SLP186
METAR CYNL 101200Z AUTO 35007KT 9SM BKN048 M16/M19 A2991 RMK AO1 SLP176
METAR CYNL 101100Z AUTO 33006KT 9SM SCT045 M16/M19 A2990 RMK AO1 SLP170
METAR CYNL 101000Z AUTO 32005KT 9SM CLR M14/M18 A2988 RMK AO1 SLP161
METAR CYNL 100900Z AUTO 35006KT 9SM CLR M13/M17 A2988 RMK AO1 SLP160
METAR CYNL 100800Z AUTO ///// 9SM CLR M11/M17 A2988 RMK AO1 SLP157
METAR CYNL 100700Z AUTO 31005KT 9SM CLR M10/M16 A2987 RMK AO1 SLP150
METAR CYNL 100600Z AUTO 28005KT 9SM CLR M09/M16 A2987 RMK AO1 SLP150
METAR CYNL 100500Z AUTO 28004KT 9SM CLR M08/M16 A2988 RMK AO1 SLP154
METAR CYNL 100400Z AUTO 29006KT 9SM CLR M06/M16 A2989 RMK AO1 SLP156
METAR CYNL 100300Z AUTO 30006KT 9SM CLR M05/M17 A2989 RMK AO1 SLP158
METAR CYNL 100200Z AUTO 30006KT 9SM CLR M03/M15 A2989 RMK AO1 SLP160
METAR CYNL 100100Z AUTO 32009G16KT 9SM SCT064 M00/M13 A2988 RMK AO1 SLP161
METAR CYNL 100000Z AUTO 27010G17KT 9SM BKN066 01/M14 A2988 RMK AO1 SLP166
METAR CYNL 092300Z AUTO 27011G20KT 9SM CLR 02/M15 A2989 RMK AO1 SLP169
METAR CYNL 092200Z AUTO 29008G20KT 9SM CLR 02/M16 A2990 RMK AO1 SLP174
METAR CYNL 092100Z AUTO 31010G16KT 9SM FEW070 02/M15 A2991 RMK AO1 SLP175
METAR CYNL 092000Z AUTO 30011G17KT 9SM FEW070 03/M16 A2991 RMK AO1 SLP176
METAR CYNL 091900Z AUTO 31009KT 9SM CLR 02/M16 A2992 RMK AO1 SLP181
METAR CYNL 091800Z AUTO 28007KT 9SM CLR 01/M16 A2993 RMK AO1 SLP184
METAR CYNL 091700Z AUTO 26006KT 9SM CLR 01/M15 A2993 RMK AO1 SLP185
METAR CYNL 091600Z AUTO 23005KT 9SM CLR M01/M15 A2994 RMK AO1 SLP186
METAR CYNL 091500Z AUTO 22004KT 9SM CLR M05/M16 A2995 RMK AO1 SLP189
METAR CYNL 091400Z AUTO 23004KT 9SM CLR M12/M19 A2996 RMK AO1 SLP199
METAR CYNL 091300Z AUTO 23006KT 9SM CLR M16/M21 A2996 RMK AO1 SLP198
METAR CYNL 091200Z AUTO 24006KT 9SM CLR M18/M22 A2996 RMK AO1 SLP199
METAR CYNL 091100Z AUTO 24005KT 9SM CLR M18/M22 A2997 RMK AO1 SLP201
METAR CYNL 091000Z AUTO 25005KT 9SM CLR M20/M24 A2998 RMK AO1 SLP206
METAR CYNL 090900Z AUTO 23005KT 9SM CLR M20/M24 A2999 RMK AO1 SLP210
METAR CYNL 090800Z AUTO 23004KT 9SM CLR M20/M25 A3000 RMK AO1 SLP214
METAR CYNL 090700Z AUTO 23005KT 9SM CLR M19/M25 A3000 RMK AO1 SLP214
METAR CYNL 090600Z AUTO 23003KT 9SM CLR M18/M24 A3001 RMK AO1 SLP216
METAR CYNL 090500Z AUTO 22002KT 9SM CLR M15/M22 A3002 RMK AO1 SLP215
METAR CYNL 090400Z AUTO 23005KT 9SM CLR M11/M21 A3002 RMK AO1 SLP213
METAR CYNL 090300Z AUTO 19003KT 9SM CLR M11/M19 A3002 RMK AO1 SLP212
METAR CYNL 090200Z AUTO 27003KT 9SM CLR M05/M19 A3001 RMK AO1 SLP208
METAR CYNL 090100Z AUTO 22002KT 9SM CLR M03/M19 A3001 RMK AO1 SLP214
METAR CYNL 090000Z AUTO 23005KT 9SM CLR M02/M18 A3001 RMK AO1 SLP223
METAR CYNL 082300Z AUTO 00000KT 9SM CLR M02/M19 A3002 RMK AO1 SLP228
METAR CYNL 082200Z AUTO 17005KT 9SM CLR M01/M17 A3002 RMK AO1 SLP228
METAR CYNL 082100Z AUTO 22004KT 9SM CLR M02/M19 A3003 RMK AO1 SLP231
METAR CYNL 082000Z AUTO 00000KT 9SM CLR M02/M19 A3003 RMK AO1 SLP231
METAR CYNL 081900Z AUTO 26005KT 230V290 9SM CLR M03/M18 A3003 RMK AO1 SLP232
METAR CYNL 081800Z AUTO 22003KT 9SM CLR M04/M18 A3004 RMK AO1 SLP233
METAR CYNL 081700Z AUTO 24003KT 210V270 9SM CLR M05/M17 A3005 RMK AO1 SLP236
METAR CYNL 081600Z AUTO 24005KT 9SM CLR M06/M17 A3005 RMK AO1 SLP235
METAR CYNL 081500Z AUTO 00000KT 9SM CLR M09/M19 A3005 RMK AO1 SLP238
METAR CYNL 081400Z AUTO 00000KT 9SM CLR M17/M24 A3005 RMK AO1 SLP242
METAR CYNL 081300Z AUTO 23002KT 9SM CLR M24/M29 A3004 RMK AO1 SLP243
METAR CYNL 081200Z AUTO 26003KT 9SM CLR M27/M31 A3003 RMK AO1 SLP241
METAR CYNL 081100Z AUTO 25004KT 9SM CLR M27/M31 A3003 RMK AO1 SLP239
METAR CYNL 081000Z AUTO 26003KT 9SM CLR M26/M30 A3004 RMK AO1 SLP239
METAR CYNL 080900Z AUTO 00000KT 9SM CLR M25/M29 A3005 RMK AO1 SLP241
METAR CYNL 080800Z AUTO 25004KT 9SM CLR M25/M28 A3006 RMK AO1 SLP243
METAR CYNL 080700Z AUTO 28003KT 9SM CLR M23/M27 A3006 RMK AO1 SLP242
METAR CYNL 080600Z AUTO 00000KT 9SM CLR M23/M27 A3006 RMK AO1 SLP241
METAR CYNL 080500Z AUTO 24005KT 9SM CLR M21/M25 A3005 RMK AO1 SLP238
METAR CYNL 080400Z AUTO 25003KT 9SM CLR M19/M24 A3005 RMK AO1 SLP235
METAR CYNL 080300Z AUTO 00000KT 9SM CLR M16/M23 A3005 RMK AO1 SLP235
METAR CYNL 080200Z AUTO 34003KT 9SM CLR M11/M19 A3005 RMK AO1 SLP232
SPECI CYNL 080144Z AUTO 34004KT 3SM CLR M10/M19 A3006 RMK AO1 SLP237
SPECI CYNL 080143Z AUTO 34004KT 2 1/2SM CLR M10/M19 A3006 RMK AO1 SLP237
METAR CYNL 080100Z AUTO 33005KT 9SM CLR M07/M19 A3007 RMK AO1 SLP238
METAR CYNL 080000Z AUTO 30004KT 9SM CLR M06/M18 A3008 RMK AO1 SLP244
METAR CYNL 072300Z AUTO 28006KT 9SM CLR M06/M18 A3010 RMK AO1 SLP251
METAR CYNL 072200Z AUTO 26003KT 9SM FEW046 M06/M18 A3011 RMK AO1 SLP255
METAR CYNL 072100Z AUTO 31008KT 9SM FEW046 M06/M18 A3012 RMK AO1 SLP258
METAR CYNL 072000Z AUTO 32007KT 9SM CLR M06/M18 A3013 RMK AO1 SLP262
METAR CYNL 071900Z AUTO 33007KT 9SM CLR M06/M17 A3014 RMK AO1 SLP262
METAR CYNL 071800Z AUTO 30008KT 9SM CLR M07/M17 A3015 RMK AO1 SLP268
METAR CYNL 071700Z AUTO 29006KT 9SM CLR M08/M17 A3017 RMK AO1 SLP276
METAR CYNL 071600Z AUTO 31009KT 9SM CLR M09/M16 A3019 RMK AO1 SLP282
METAR CYNL 071500Z AUTO 29005KT 9SM CLR M12/M18 A3020 RMK AO1 SLP289
METAR CYNL 071400Z AUTO ///// 9SM CLR M16/M20 A3021 RMK AO1 SLP296
METAR CYNL 071300Z AUTO 29005KT 9SM CLR M17/M21 A3021 RMK AO1 SLP296
METAR CYNL 071200Z AUTO 28004KT 9SM CLR M19/M22 A3022 RMK AO1 SLP300
METAR CYNL 071100Z AUTO 29005KT 9SM CLR M19/M22 A3022 RMK AO1 SLP299
METAR CYNL 071000Z AUTO 30005KT 9SM CLR M18/M22 A3023 RMK AO1 SLP299
METAR CYNL 070900Z AUTO 29005KT 9SM CLR M18/M21 A3023 RMK AO1 SLP301
METAR CYNL 070800Z AUTO 30006KT 9SM CLR M17/M21 A3024 RMK AO1 SLP302
METAR CYNL 070700Z AUTO 31007KT 9SM CLR M16/M21 A3025 RMK AO1 SLP304
METAR CYNL 070600Z AUTO 30006KT 9SM CLR M17/M22 A3026 RMK AO1 SLP310
METAR CYNL 070500Z AUTO 30006KT 9SM FEW036 M17/M22 A3026 RMK AO1 SLP313
METAR CYNL 070400Z AUTO 30005KT 9SM BKN036 M17/M23 A3027 RMK AO1 SLP319
METAR CYNL 070300Z AUTO 30005KT 9SM CLR M15/M23 A3028 RMK AO1 SLP320
METAR CYNL 070200Z AUTO 32005KT 9SM CLR M13/M22 A3029 RMK AO1 SLP321
METAR CYNL 070100Z AUTO 33009KT 9SM CLR M11/M22 A3030 RMK AO1 SLP326
METAR CYNL 070000Z AUTO 29008KT 9SM CLR M11/M21 A3031 RMK AO1 SLP331
METAR CYNL 062300Z AUTO 29011KT 9SM CLR M11/M21 A3032 RMK AO1 SLP335
METAR CYNL 062200Z AUTO 30010G17KT 9SM CLR M11/M21 A3033 RMK AO1 SLP339
METAR CYNL 062100Z AUTO 30009G17KT 9SM CLR M11/M21 A3034 RMK AO1 SLP339
METAR CYNL 062000Z AUTO 30011G17KT 9SM CLR M11/M21 A3035 RMK AO1 SLP342
METAR CYNL 061900Z AUTO 32005G16KT 9SM CLR M12/M21 A3036 RMK AO1 SLP346
METAR CYNL 061800Z AUTO 31010KT 9SM CLR M13/M21 A3037 RMK AO1 SLP348
METAR CYNL 061700Z AUTO ///// 9SM FEW210 M15/M22 A3036 RMK AO1 SLP349
METAR CYNL 061600Z AUTO ///// 9SM CLR M16/M22 A3037 RMK AO1 SLP351
METAR CYNL 061500Z AUTO ///// 9SM FEW005 M17/M22 A3038 RMK AO1 SLP355
SPECI CYNL 061447Z AUTO 33007KT 9SM SCT006 M18/M22 A3038 RMK AO1 SLP355
SPECI CYNL 061438Z AUTO 31006KT 8SM VV005 M18/M22 A3038 RMK AO1 SLP356
SPECI CYNL 061412Z AUTO 32009KT 8SM FEW004 M19/M23 A3038 RMK AO1 SLP358
METAR CYNL 061400Z AUTO 31009G15KT 9SM CLR M19/M23 A3038 RMK AO1 SLP357
METAR CYNL 061300Z AUTO 30008KT 9SM CLR M21/M24 A3038 RMK AO1 SLP359
METAR CYNL 061200Z AUTO ///// 9SM CLR M21/M24 A3038 RMK AO1 SLP356
METAR CYNL 061100Z AUTO 31008KT 9SM CLR M20/M23 A3038 RMK AO1 SLP356
METAR CYNL 061000Z AUTO ///// 9SM CLR M19/M22 A3037 RMK AO1 SLP351
METAR CYNL 060900Z AUTO 32008G16KT 9SM CLR M18/M21 A3036 RMK AO1 SLP347
METAR CYNL 060800Z AUTO ///// 9SM CLR M17/M20 A3036 RMK AO1 SLP345
METAR CYNL 060700Z AUTO ///// 9SM SCT014 M16/M19 A3036 RMK AO1 SLP343
SPECI CYNL 060652Z AUTO ///// 9SM SCT014 M16/M19 A3036 RMK AO1 SLP343
SPECI CYNL 060648Z AUTO ///// 9SM BKN014 M15/M19 A3036 RMK AO1 SLP343
SPECI CYNL 060623Z AUTO ///// 9SM SCT015 M15/M19 A3035 RMK AO1 SLP342
SPECI CYNL 060612Z AUTO 33006KT 9SM BKN014 M16/M19 A3035 RMK AO1 SLP342
METAR CYNL 060600Z AUTO 32005KT 9SM FEW015 M15/M19 A3035 RMK AO1 SLP342
METAR CYNL 060500Z AUTO ///// 9SM FEW017 M15/M18 A3034 RMK AO1 SLP340
SPECI CYNL 060453Z AUTO ///// 9SM SCT018 M14/M18 A3034 RMK AO1 SLP342
SPECI CYNL 060413Z AUTO ///// 9SM FEW009 BKN020 M14/M18 A3034 RMK AO1 SLP340
SPECI CYNL 060405Z AUTO ///// 9SM FEW009 SCT023 M14/M18 A3034 RMK AO1 SLP340
METAR CYNL 060400Z AUTO ///// 9SM FEW023 M14/M18 A3034 RMK AO1 SLP339
METAR CYNL 060300Z AUTO ///// 9SM CLR M13/M18 A3034 RMK AO1 SLP340
METAR CYNL 060200Z AUTO ///// 9SM CLR M13/M18 A3034 RMK AO1 SLP342
METAR CYNL 060100Z AUTO 33010KT 9SM FEW015 M12/M18 A3033 RMK AO1 SLP342
SPECI CYNL 060012Z AUTO ///// 9SM SCT015 M12/M17 A3033 RMK AO1 SLP344
SPECI CYNL 060001Z AUTO ///// 9SM VV015 M12/M17 A3033 RMK AO1 SLP345
METAR CYNL 060000Z AUTO ///// 9SM SCT015 BKN062 M12/M17 A3033 RMK AO1 SLP345
SPECI CYNL 052354Z AUTO ///// 9SM SCT016 BKN062 M12/M17 A3033 RMK AO1 SLP347
SPECI CYNL 052351Z AUTO ///// 9SM VV016 M12/M17 A3033 RMK AO1 SLP346
METAR CYNL 052300Z AUTO 32014G21KT 7SM SCT058 M12/M18 A3032 RMK AO1 SLP344
METAR CYNL 052200Z AUTO 31012G20KT 9SM FEW064 SCT200 M11/M19 A3031 RMK AO1 SLP340
METAR CYNL 052100Z AUTO 33010G21KT 9SM BKN064 BKN180 M11/M21 A3030 RMK AO1 SLP337
METAR CYNL 052000Z AUTO 33013G20KT 9SM BKN062 BKN190 M12/M22 A3029 RMK AO1 SLP335
METAR CYNL 051900Z AUTO 33014G20KT 9SM SCT066 M12/M22 A3028 RMK AO1 SLP334
METAR CYNL 051800Z AUTO 33009G16KT 9SM CLR M14/M21 A3027 RMK AO1 SLP333
METAR CYNL 051700Z AUTO ///// 9SM CLR M16/M21 A3026 RMK AO1 SLP332
METAR CYNL 051600Z AUTO ///// 9SM CLR M17/M22 A3025 RMK AO1 PRESRR SLP329
METAR CYNL 051500Z AUTO 35009KT 6SM FEW008 M19/M24 A3023 RMK AO1 SLP320
SPECI CYNL 051440Z AUTO ///// 4SM FEW007 SCT011 M20/M24 A3022 RMK AO1 SLP314
SPECI CYNL 051438Z AUTO ///// 2SM FEW008 SCT011 M20/M24 A3022 RMK AO1 SLP314
SPECI CYNL 051417Z AUTO ///// 6SM FEW007 SCT008 M21/M25 A3021 RMK AO1 SLP313
SPECI CYNL 051411Z AUTO ///// 4SM VV009 M22/M26 A3021 RMK AO1 SLP313
SPECI CYNL 051407Z AUTO ///// 3SM VV011 M22/M26 A3021 RMK AO1 SLP313
SPECI CYNL 051404Z AUTO ///// 4SM FEW008 M22/M26 A3021 RMK AO1 SLP313
METAR CYNL 051400Z AUTO 34009KT 9SM CLR M22/M26 A3021 RMK AO1 SLP312
SPECI CYNL 051325Z AUTO ///// 9SM FEW007 SCT011 M24/M27 A3020 RMK AO1 SLP309
SPECI CYNL 051320Z AUTO ///// 5SM VV009 M24/M28 A3020 RMK AO1 SLP308
SPECI CYNL 051309Z AUTO ///// 6SM FEW005 SCT011 M24/M28 A3019 RMK AO1 SLP306
SPECI CYNL 051308Z AUTO ///// 5SM FEW005 SCT011 BKN026 M24/M28 A3019 RMK AO1 SLP306
SPECI CYNL 051301Z AUTO ///// 8SM FEW007 SCT014 M24/M28 A3019 RMK AO1 SLP306
METAR CYNL 051300Z AUTO ///// 9SM FEW007 SCT011 BKN026 M24/M28 A3019 RMK AO1 SLP306
SPECI CYNL 051259Z AUTO ///// 9SM FEW007 SCT011 BKN026 M24/M28 A3019 RMK AO1 SLP305
SPECI CYNL 051258Z AUTO ///// 9SM FEW007 SCT011 BKN023 M24/M28 A3019 RMK AO1 SLP304
SPECI CYNL 051257Z AUTO ///// 9SM FEW007 SCT012 BKN025 M24/M28 A3019 RMK AO1 PRESRR SLP304
SPECI CYNL 051256Z AUTO ///// 5SM FEW007 BKN013 M24/M28 A3019 RMK AO1 PRESRR SLP304
SPECI CYNL 051254Z AUTO ///// 5SM FEW007 SCT013 BKN017 M24/M28 A3019 RMK AO1 PRESRR SLP304
SPECI CYNL 051253Z AUTO ///// 5SM FEW007 BKN013 M24/M28 A3019 RMK AO1 PRESRR SLP304
SPECI CYNL 051251Z AUTO ///// 6SM FEW007 SCT013 BKN017 M24/M28 A3019 RMK AO1 PRESRR SLP304
SPECI CYNL 051250Z AUTO ///// 9SM FEW008 BKN014 M24/M28 A3019 RMK AO1 PRESRR SLP304
SPECI CYNL 051241Z AUTO 35006KT 4SM VV015 M25/M29 A3018 RMK AO1 PRESRR SLP303
SPECI CYNL 051234Z AUTO 35006KT 7SM FEW007 SCT013 M25/M29 A3018 RMK AO1 PRESRR SLP303
SPECI CYNL 051232Z AUTO 35005KT 6SM SCT007 BKN016 M25/M29 A3018 RMK AO1 PRESRR SLP303
SPECI CYNL 051229Z AUTO ///// 4SM VV011 M25/M29 A3018 RMK AO1 PRESRR SLP303
SPECI CYNL 051227Z AUTO ///// 4SM VV009 M25/M29 A3018 RMK AO1 PRESRR SLP303
SPECI CYNL 051226Z AUTO ///// 4SM SCT007 BKN015 M25/M29 A3018 RMK AO1 PRESRR SLP303
SPECI CYNL 051213Z AUTO ///// 9SM SCT006 M26/M30 A3017 RMK AO1 PRESRR SLP301
SPECI CYNL 051204Z AUTO ///// 4SM VV009 M26/M30 A3017 RMK AO1 PRESRR SLP300
METAR CYNL 051200Z AUTO ///// 4SM FEW006 M26/M30 A3017 RMK AO1 PRESRR SLP300
SPECI CYNL 051137Z AUTO ///// 5SM FEW008 M26/M30 A3016 RMK AO1 SLP296
METAR CYNL 051100Z AUTO 34005KT 9SM CLR M26/M30 A3015 RMK AO1 SLP292
METAR CYNL 051000Z AUTO 34006KT 9SM CLR M26/M30 A3013 RMK AO1 PRESRR SLP285
METAR CYNL 050900Z AUTO 00000KT 9SM CLR M27/M30 A3011 RMK AO1 SLP276
METAR CYNL 050800Z AUTO 00000KT 9SM CLR M28/M31 A3009 RMK AO1 SLP272
SPECI CYNL 050742Z AUTO 29003KT 7SM FEW008 M28/M31 A3009 RMK AO1 SLP271
METAR CYNL 050700Z AUTO 28002KT 9SM FEW096 M28/M32 A3008 RMK AO1 SLP267
SPECI CYNL 050614Z AUTO ///// 6SM FEW005 SCT009 M28/M32 A3007 RMK AO1 SLP263
SPECI CYNL 050611Z AUTO ///// 5SM VV007 M28/M32 A3007 RMK AO1 SLP262
SPECI CYNL 050606Z AUTO ///// 9SM FEW009 M28/M32 A3006 RMK AO1 SLP262
METAR CYNL 050600Z AUTO ///// 9SM CLR M28/M32 A3006 RMK AO1 SLP262
METAR CYNL 050500Z AUTO ///// 9SM CLR M27/M31 A3005 RMK AO1 SLP258
METAR CYNL 050400Z AUTO 29004KT 9SM CLR M25/M29 A3005 RMK AO1 SLP254
METAR CYNL 050300Z AUTO 30003KT 9SM CLR M22/M25 A3005 RMK AO1 SLP248
SPECI CYNL 050201Z AUTO 33005KT 9SM FEW008 SCT011 M19/M24 A3004 RMK AO1 SLP244
METAR CYNL 050200Z AUTO 33004KT 9SM FEW008 SCT011 BKN017 M19/M24 A3004 RMK AO1 SLP244
SPECI CYNL 050157Z AUTO 32004KT 9SM FEW008 SCT011 BKN017 M19/M24 A3004 RMK AO1 PRESRR SLP244
SPECI CYNL 050154Z AUTO 32003KT 5SM FEW009 SCT011 BKN014 M19/M24 A3003 RMK AO1 PRESRR SLP244
SPECI CYNL 050144Z AUTO 32004KT 3SM VV012 M19/M24 A3003 RMK AO1 PRESRR SLP243
SPECI CYNL 050142Z AUTO 32005KT 2SM VV012 M19/M24 A3003 RMK AO1 PRESRR SLP242
SPECI CYNL 050141Z AUTO 32004KT 1 3/4SM VV011 M19/M24 A3003 RMK AO1 PRESRR SLP242
SPECI CYNL 050138Z AUTO 32005KT 2 1/2SM VV011 M19/M24 A3003 RMK AO1 PRESRR SLP242
SPECI CYNL 050132Z AUTO 33005KT 3SM VV014 M19/M25 A3003 RMK AO1 PRESRR SLP241
SPECI CYNL 050131Z AUTO 33005KT 4SM VV015 M19/M25 A3003 RMK AO1 PRESRR SLP241
SPECI CYNL 050115Z AUTO 32005KT 9SM FEW007 M19/M26 A3003 RMK AO1 PRESRR SLP240
METAR CYNL 050100Z AUTO 31005KT 9SM CLR M18/M26 A3002 RMK AO1 PRESRR SLP238
SPECI CYNL 050047Z AUTO ///// 6SM FEW008 M18/M26 A3002 RMK AO1 SLP238
METAR CYNL 050000Z AUTO 34004KT 9SM CLR M17/M27 A3000 RMK AO1 SLP231
METAR CYNL 042300Z AUTO ///// 9SM CLR M17/M27 A2998 RMK AO1 PRESRR SLP223
METAR CYNL 042200Z AUTO 29006KT 9SM FEW033 SCT160 M16/M26 A2996 RMK AO1 PRESRR SLP214
SPECI CYNL 042112Z AUTO ///// 4SM FEW005 SCT031 M16/M24 A2994 RMK AO1 PRESRR SLP206
METAR CYNL 042100Z AUTO ///// 9SM FEW015 SCT031 M16/M24 A2993 RMK AO1 PRESRR SLP205
SPECI CYNL 042025Z AUTO ///// 6SM FEW009 SCT026 M16/M24 A2992 RMK AO1 PRESRR SLP199
SPECI CYNL 042021Z AUTO ///// 7SM SCT012 BKN110 M16/M23 A2992 RMK AO1 PRESRR SLP198
SPECI CYNL 042006Z AUTO 33006KT 6SM SCT008 BKN027 M15/M23 A2991 RMK AO1 PRESRR SLP195
SPECI CYNL 042005Z AUTO 31006KT 6SM SCT008 BKN015 M15/M23 A2991 RMK AO1 PRESRR SLP195
SPECI CYNL 042003Z AUTO ///// 6SM SCT008 BKN014 M15/M23 A2991 RMK AO1 PRESRR SLP195
SPECI CYNL 042001Z AUTO ///// 6SM SCT007 BKN015 M16/M23 A2991 RMK AO1 PRESRR SLP195
METAR CYNL 042000Z AUTO ///// 5SM SCT007 BKN010 BKN026 M16/M23 A2991 RMK AO1 PRESRR SLP195
SPECI CYNL 041951Z AUTO ///// 3SM VV012 M16/M23 A2990 RMK AO1 PRESRR SLP195
SPECI CYNL 041949Z AUTO ///// 2 1/2SM VV011 M16/M22 A2990 RMK AO1 PRESRR SLP194
SPECI CYNL 041947Z AUTO ///// 3SM VV010 M16/M23 A2990 RMK AO1 PRESRR SLP194
SPECI CYNL 041944Z AUTO ///// 3SM VV008 M16/M23 A2990 RMK AO1 PRESRR SLP194
SPECI CYNL 041941Z AUTO ///// 2 1/2SM VV007 M16/M22 A2990 RMK AO1 PRESRR SLP193
SPECI CYNL 041940Z AUTO ///// 3SM VV009 M16/M22 A2990 RMK AO1 PRESRR SLP193
SPECI CYNL 041936Z AUTO ///// 3SM VV013 M16/M22 A2990 RMK AO1 PRESRR SLP192
SPECI CYNL 041935Z AUTO ///// 2 1/2SM VV013 M16/M22 A2990 RMK AO1 PRESRR SLP192
SPECI CYNL 041925Z AUTO ///// 3SM VV012 M16/M22 A2989 RMK AO1 PRESRR SLP191
SPECI CYNL 041921Z AUTO ///// 2 1/2SM VV013 M16/M22 A2989 RMK AO1 PRESRR SLP190
SPECI CYNL 041920Z AUTO ///// 3SM VV012 M16/M22 A2989 RMK AO1 PRESRR SLP190
SPECI CYNL 041911Z AUTO ///// 2SM VV011 M16/M22 A2989 RMK AO1 PRESRR SLP188
METAR CYNL 041900Z AUTO ///// 1 3/4SM VV014 M15/M22 A2988 RMK AO1 PRESRR SLP185
SPECI CYNL 041858Z AUTO ///// 2 1/2SM VV013 M15/M22 A2988 RMK AO1 PRESRR SLP185
SPECI CYNL 041855Z AUTO ///// 2 1/2SM FEW009 BKN018 M15/M22 A2988 RMK AO1 PRESRR SLP184
SPECI CYNL 041853Z AUTO ///// 4SM FEW008 BKN018 M15/M23 A2987 RMK AO1 PRESRR SLP184
SPECI CYNL 041846Z AUTO ///// 3SM SCT014 BKN023 M15/M22 A2987 RMK AO1 PRESRR SLP182
SPECI CYNL 041840Z AUTO ///// 9SM FEW012 SCT018 BKN140 M14/M23 A2987 RMK AO1 PRESRR SLP180
SPECI CYNL 041834Z AUTO ///// 9SM FEW011 BKN017 BKN170 M14/M22 A2987 RMK AO1 PRESRR SLP180
SPECI CYNL 041832Z AUTO ///// 5SM VV014 M15/M22 A2987 RMK AO1 PRESRR SLP180
SPECI CYNL 041830Z AUTO ///// 5SM VV015 M15/M22 A2987 RMK AO1 PRESRR SLP180
SPECI CYNL 041829Z AUTO ///// 5SM VV014 M15/M22 A2987 RMK AO1 PRESRR SLP180
SPECI CYNL 041815Z AUTO ///// 3SM VV019 M15/M21 A2986 RMK AO1 PRESRR SLP178
SPECI CYNL 041813Z AUTO ///// 2SM VV019 M15/M21 A2986 RMK AO1 PRESRR SLP177
SPECI CYNL 041811Z AUTO ///// 1 1/2SM BKN016 M15/M21 A2986 RMK AO1 PRESRR SLP177
SPECI CYNL 041810Z AUTO ///// 2SM FEW006 BKN014 M15/M22 A2986 RMK AO1 PRESRR SLP176
SPECI CYNL 041809Z AUTO ///// 3SM FEW006 BKN014 M15/M22 A2985 RMK AO1 PRESRR SLP176
SPECI CYNL 041806Z AUTO ///// 7SM FEW006 SCT013 BKN016 M15/M22 A2985 RMK AO1 PRESRR SLP176
SPECI CYNL 041804Z AUTO ///// 6SM FEW006 BKN014 BKN027 M15/M22 A2985 RMK AO1 PRESRR SLP176
METAR CYNL 041800Z AUTO ///// 5SM VV013 M16/M22 A2985 RMK AO1 PRESRR SLP176
SPECI CYNL 041759Z AUTO ///// 4SM VV014 M16/M22 A2985 RMK AO1 PRESRR SLP176
SPECI CYNL 041757Z AUTO ///// 2SM VV014 M16/M21 A2985 RMK AO1 SLP176
SPECI CYNL 041756Z AUTO ///// 1 1/2SM VV014 M16/M21 A2985 RMK AO1 SLP176
SPECI CYNL 041755Z AUTO ///// 1 1/4SM VV013 M16/M21 A2985 RMK AO1 SLP176
SPECI CYNL 041752Z AUTO ///// 1 1/2SM VV014 M16/M21 A2985 RMK AO1 SLP175
SPECI CYNL 041750Z AUTO ///// 1SM VV014 M16/M21 A2985 RMK AO1 SLP175
SPECI CYNL 041748Z AUTO ///// 3/4SM VV016 M15/M20 A2985 RMK AO1 SLP173
SPECI CYNL 041747Z AUTO ///// 1SM VV016 M15/M21 A2985 RMK AO1 SLP173
SPECI CYNL 041746Z AUTO ///// 2SM VV016 M15/M21 A2984 RMK AO1 SLP173
SPECI CYNL 041738Z AUTO ///// 4SM VV015 M15/M22 A2984 RMK AO1 SLP172
SPECI CYNL 041737Z AUTO ///// 2 1/2SM VV016 M15/M21 A2984 RMK AO1 SLP172
SPECI CYNL 041736Z AUTO ///// 2SM VV014 M15/M21 A2984 RMK AO1 SLP171
SPECI CYNL 041734Z AUTO ///// 2 1/2SM VV015 M15/M21 A2984 RMK AO1 SLP171
SPECI CYNL 041732Z AUTO 33009KT 5SM VV014 M15/M21 A2984 RMK AO1 SLP171
SPECI CYNL 041720Z AUTO ///// 4SM VV016 M15/M21 A2984 RMK AO1 SLP170
SPECI CYNL 041717Z AUTO ///// 2 1/2SM SCT013 BKN022 BKN170 M15/M21 A2984 RMK AO1 SLP169
SPECI CYNL 041705Z AUTO ///// 8SM FEW008 SCT012 BKN022 M15/M22 A2983 RMK AO1 SLP168
METAR CYNL 041700Z AUTO ///// 4SM VV020 M15/M21 A2983 RMK AO1 SLP167
SPECI CYNL 041655Z AUTO ///// 4SM VV015 M15/M21 A2983 RMK AO1 SLP166
SPECI CYNL 041643Z AUTO ///// 4SM VV010 M16/M21 A2982 RMK AO1 SLP166
SPECI CYNL 041642Z AUTO ///// 4SM VV009 M16/M21 A2982 RMK AO1 SLP165
SPECI CYNL 041640Z AUTO ///// 5SM VV011 M16/M21 A2982 RMK AO1 SLP166
SPECI CYNL 041620Z AUTO ///// 7SM FEW008 SCT014 BKN022 M16/M22 A2982 RMK AO1 SLP164
SPECI CYNL 041619Z AUTO ///// 7SM FEW008 BKN014 BKN022 M16/M22 A2982 RMK AO1 SLP164
SPECI CYNL 041617Z AUTO ///// 6SM VV014 M16/M22 A2982 RMK AO1 SLP164
SPECI CYNL 041613Z AUTO ///// 3SM VV018 M16/M21 A2982 RMK AO1 SLP164
SPECI CYNL 041610Z AUTO ///// 2 1/2SM VV019 M16/M21 A2982 RMK AO1 SLP164
SPECI CYNL 041606Z AUTO ///// 4SM VV016 M16/M21 A2982 RMK AO1 SLP164
SPECI CYNL 041603Z AUTO ///// 5SM FEW008 BKN013 BKN019 M16/M21 A2982 RMK AO1 SLP163
METAR CYNL 041600Z AUTO ///// 5SM VV014 M16/M21 A2982 RMK AO1 SLP163
SPECI CYNL 041505Z AUTO ///// 4SM VV011 M17/M22 A2982 RMK AO1 SLP165
SPECI CYNL 041504Z AUTO ///// 4SM FEW008 SCT014 M17/M22 A2982 RMK AO1 SLP165
SPECI CYNL 041503Z AUTO ///// 4SM VV011 M17/M22 A2982 RMK AO1 SLP165
METAR CYNL 041500Z AUTO ///// 5SM FEW007 SCT060 M17/M22 A2982 RMK AO1 SLP165
SPECI CYNL 041432Z AUTO ///// 6SM FEW006 M17/M22 A2982 RMK AO1 SLP163
METAR CYNL 041400Z AUTO ///// 9SM FEW100 M18/M22 A2981 RMK AO1 SLP163
SPECI CYNL 041327Z AUTO ///// 9SM FEW007 SCT014 M18/M23 A2981 RMK AO1 SLP161
SPECI CYNL 041323Z AUTO ///// 6SM FEW007 SCT014 BKN018 M18/M22 A2981 RMK AO1 SLP162
SPECI CYNL 041321Z AUTO ///// 6SM FEW009 BKN014 M18/M23 A2981 RMK AO1 SLP161
SPECI CYNL 041320Z AUTO ///// 7SM BKN013 M18/M23 A2981 RMK AO1 SLP161
SPECI CYNL 041316Z AUTO ///// 9SM FEW009 SCT013 BKN016 M18/M22 A2981 RMK AO1 SLP162
SPECI CYNL 041315Z AUTO ///// 9SM FEW011 BKN015 BKN023 M18/M22 A2981 RMK AO1 SLP162
SPECI CYNL 041309Z AUTO ///// 6SM VV014 M18/M22 A2981 RMK AO1 SLP161
METAR CYNL 041300Z AUTO ///// 4SM VV015 M18/M22 A2981 RMK AO1 SLP160
SPECI CYNL 041259Z AUTO ///// 5SM VV014 M18/M22 A2981 RMK AO1 SLP159
SPECI CYNL 041258Z AUTO ///// 4SM VV015 M18/M22 A2981 RMK AO1 SLP158
SPECI CYNL 041256Z AUTO 31008KT 5SM VV014 M18/M22 A2981 RMK AO1 SLP158
SPECI CYNL 041233Z AUTO ///// 3SM VV017 M18/M22 A2981 RMK AO1 SLP159
SPECI CYNL 041232Z AUTO ///// 2 1/2SM VV017 M18/M22 A2981 RMK AO1 SLP159
SPECI CYNL 041228Z AUTO 30008KT 3SM VV015 M18/M22 A2981 RMK AO1 SLP159
SPECI CYNL 041215Z AUTO 30009KT 6SM VV013 M18/M22 A2981 RMK AO1 SLP159
SPECI CYNL 041213Z AUTO 29007KT 6SM VV015 M18/M22 A2981 RMK AO1 SLP159
SPECI CYNL 041209Z AUTO ///// 5SM VV014 M18/M22 A2981 RMK AO1 SLP159
METAR CYNL 041200Z AUTO 30008KT 4SM VV023 M18/M22 A2981 RMK AO1 SLP158
SPECI CYNL 041150Z AUTO ///// 3SM SCT010 BKN017 OVC068 M18/M22 A2981 RMK AO1 SLP156
SPECI CYNL 041145Z AUTO ///// 4SM SCT010 BKN018 OVC068 M18/M22 A2981 RMK AO1 SLP156
SPECI CYNL 041132Z AUTO 30009KT 4SM SCT009 BKN011 BKN017 M18/M22 A2981 RMK AO1 SLP156
SPECI CYNL 041126Z AUTO 30008KT 5SM VV009 M18/M22 A2981 RMK AO1 SLP156
SPECI CYNL 041111Z AUTO ///// 3SM VV012 M18/M21 A2981 RMK AO1 SLP157
SPECI CYNL 041109Z AUTO ///// 3SM FEW009 SCT011 OVC017 M18/M21 A2981 RMK AO1 SLP157
SPECI CYNL 041108Z AUTO ///// 3SM SCT010 BKN015 OVC017 M18/M21 A2981 RMK AO1 SLP157
SPECI CYNL 041103Z AUTO ///// 2 1/2SM FEW009 SCT012 OVC016 M18/M21 A2981 RMK AO1 SLP157
METAR CYNL 041100Z AUTO ///// 2 1/2SM VV010 M18/M21 A2981 RMK AO1 SLP157
SPECI CYNL 041054Z AUTO ///// 2SM VV014 M18/M21 A2981 RMK AO1 SLP156
SPECI CYNL 041051Z AUTO ///// 2 1/2SM BKN016 BKN054 OVC074 M18/M21 A2981 RMK AO1 SLP156
SPECI CYNL 041044Z AUTO ///// 5SM SCT014 BKN023 OVC076 M18/M21 A2981 RMK AO1 SLP156
SPECI CYNL 041005Z AUTO 30008KT 9SM FEW008 SCT014 BKN092 M18/M21 A2982 RMK AO1 SLP159
SPECI CYNL 041001Z AUTO 29009KT 4SM FEW008 BKN014 OVC096 M18/M21 A2982 RMK AO1 SLP158
METAR CYNL 041000Z AUTO 29009KT 4SM VV012 M18/M21 A2982 RMK AO1 SLP159
SPECI CYNL 040955Z AUTO 29008KT 4SM VV010 M18/M21 A2982 RMK AO1 SLP159
SPECI CYNL 040949Z AUTO 29008KT 3SM VV009 M18/M21 A2982 RMK AO1 SLP160
METAR CYNL 040900Z AUTO 29008KT 7SM FEW007 SCT088 M18/M21 A2984 RMK AO1 SLP164
SPECI CYNL 040858Z AUTO 29008KT 7SM FEW007 SCT086 M18/M21 A2984 RMK AO1 SLP164
METAR CYNL 040800Z AUTO ///// 9SM SCT072 BKN082 M17/M22 A2985 RMK AO1 SLP170
METAR CYNL 040700Z AUTO 29008KT 9SM FEW078 M18/M22 A2987 RMK AO1 SLP176
SPECI CYNL 040607Z AUTO 28008KT 6SM FEW008 M18/M23 A2988 RMK AO1 SLP182
METAR CYNL 040600Z AUTO 28007KT 9SM CLR M18/M23 A2989 RMK AO1 SLP182
METAR CYNL 040500Z AUTO ///// 9SM BKN038 M17/M23 A2990 RMK AO1 SLP189
METAR CYNL 040400Z AUTO ///// 9SM FEW037 BKN052 M16/M23 A2992 RMK AO1 SLP196
METAR CYNL 040300Z AUTO ///// 9SM CLR M16/M23 A2994 RMK AO1 SLP201
METAR CYNL 040200Z AUTO ///// 9SM CLR M14/M22 A2995 RMK AO1 SLP206
METAR CYNL 040100Z AUTO ///// 9SM CLR M12/M21 A2996 RMK AO1 SLP211
METAR CYNL 040000Z AUTO 30012G21KT 9SM CLR M11/M20 A2997 RMK AO1 SLP218
METAR CYNL 032300Z AUTO 30008G20KT 9SM CLR M10/M20 A2998 RMK AO1 SLP222
METAR CYNL 032200Z AUTO 28009G21KT 9SM CLR M10/M21 A3000 RMK AO1 SLP231
METAR CYNL 032100Z AUTO 28013G22KT 9SM CLR M11/M22 A3001 RMK AO1 SLP237
METAR CYNL 032000Z AUTO 30012G19KT 9SM CLR M11/M22 A3001 RMK AO1 SLP238
METAR CYNL 031900Z AUTO 28013G18KT 9SM CLR M11/M22 A3002 RMK AO1 SLP240
METAR CYNL 031800Z AUTO 28013G20KT 9SM CLR M12/M22 A3002 RMK AO1 SLP243
METAR CYNL 031700Z AUTO 29009G16KT 9SM CLR M13/M22 A3003 RMK AO1 SLP245
METAR CYNL 031600Z AUTO 28008KT 9SM CLR M14/M23 A3004 RMK AO1 SLP248
METAR CYNL 031500Z AUTO 28008KT 9SM CLR M17/M24 A3005 RMK AO1 SLP252
METAR CYNL 031400Z AUTO 30008KT 9SM CLR M19/M25 A3006 RMK AO1 SLP256
METAR CYNL 031300Z AUTO ///// 9SM CLR M24/M29 A3007 RMK AO1 SLP262
METAR CYNL 031200Z AUTO ///// 9SM CLR M25/M30 A3008 RMK AO1 SLP262
METAR CYNL 031100Z AUTO ///// 9SM CLR M27/M32 A3009 RMK AO1 SLP264
METAR CYNL 031000Z AUTO ///// 9SM CLR M28/M33 A3009 RMK AO1 SLP267
METAR CYNL 030900Z AUTO ///// 9SM CLR M28/M33 A3009 RMK AO1 SLP268
METAR CYNL 030800Z AUTO ///// 9SM CLR M27/M32 A3010 RMK AO1 SLP268
METAR CYNL 030700Z AUTO ///// 9SM CLR M27/M32 A3010 RMK AO1 SLP268
METAR CYNL 030600Z AUTO 25004KT 9SM CLR M25/M31 A3009 RMK AO1 SLP267
METAR CYNL 030500Z AUTO 26002KT 9SM CLR M25/M31 A3009 RMK AO1 SLP267
METAR CYNL 030400Z AUTO 28003KT 9SM CLR M23/M29 A3009 RMK AO1 SLP266
METAR CYNL 030300Z AUTO 33005KT 9SM CLR M20/M28 A3009 RMK AO1 SLP264
METAR CYNL 030200Z AUTO 31004KT 9SM CLR M17/M27 A3009 RMK AO1 SLP262
METAR CYNL 030100Z AUTO ///// 9SM CLR M15/M26 A3008 RMK AO1 SLP267
METAR CYNL 030000Z AUTO 32005KT 9SM CLR M13/M25 A3007 RMK AO1 SLP271
METAR CYNL 022300Z AUTO 30004KT 9SM CLR M12/M25 A3007 RMK AO1 SLP272
METAR CYNL 022200Z AUTO 30006KT 240V000 9SM CLR M12/M25 A3006 RMK AO1 SLP269
METAR CYNL 022100Z AUTO 26004KT 230V300 9SM CLR M12/M25 A3006 RMK AO1 SLP267
METAR CYNL 022000Z AUTO 00000KT 9SM CLR M12/M25 A3006 RMK AO1 SLP267
METAR CYNL 021900Z AUTO 10002KT 9SM CLR M15/M26 A3006 RMK AO1 SLP268
METAR CYNL 021800Z AUTO 10003KT 9SM CLR M15/M27 A3006 RMK AO1 SLP269
METAR CYNL 021700Z AUTO 31005KT 280V350 9SM CLR M16/M28 A3006 RMK AO1 SLP269
METAR CYNL 021600Z AUTO 33004KT 9SM CLR M17/M27 A3006 RMK AO1 SLP266
METAR CYNL 021500Z AUTO 31004KT 9SM CLR M20/M28 A3006 RMK AO1 SLP269
METAR CYNL 021400Z AUTO 00000KT 9SM CLR M28/M33 A3005 RMK AO1 SLP271
METAR CYNL 021300Z AUTO 25003KT 9SM CLR M35/M39 A3005 RMK AO1 SLP276
METAR CYNL 021200Z AUTO 26003KT 9SM CLR M37/M42 A3005 RMK AO1 SLP276
METAR CYNL 021100Z AUTO 27002KT 9SM CLR M36/M41 A3005 RMK AO1 SLP273
METAR CYNL 021000Z AUTO 00000KT 9SM CLR M36/M40 A3006 RMK AO1 SLP272
METAR CYNL 020900Z AUTO 00000KT 9SM CLR M35/M40 A3006 RMK AO1 SLP272
METAR CYNL 020800Z AUTO 00000KT 9SM CLR M35/M40 A3006 RMK AO1 SLP273
METAR CYNL 020700Z AUTO 26003KT 9SM CLR M35/M40 A3006 RMK AO1 SLP273
METAR CYNL 020600Z AUTO 00000KT 9SM CLR M33/M38 A3005 RMK AO1 SLP269
METAR CYNL 020500Z AUTO ///// 9SM CLR M29/M33 A3005 RMK AO1 SLP264
METAR CYNL 020400Z AUTO ///// 9SM CLR M29/M34 A3006 RMK AO1 SLP269
METAR CYNL 020300Z AUTO 00000KT 9SM CLR M25/M31 A3006 RMK AO1 SLP265
METAR CYNL 020200Z AUTO 03004KT 9SM CLR M22/M29 A3005 RMK AO1 SLP261
METAR CYNL 020100Z AUTO 03006KT 9SM CLR M19/M28 A3005 RMK AO1 SLP259
METAR CYNL 020000Z AUTO 03007KT 9SM CLR M18/M27 A3004 RMK AO1 SLP258
METAR CYNL 012300Z AUTO ///// 9SM CLR M17/M27 A3004 RMK AO1 SLP257
METAR CYNL 012200Z AUTO 03008KT 9SM CLR M17/M26 A3004 RMK AO1 SLP255
METAR CYNL 012100Z AUTO 01006KT 9SM CLR M17/M27 A3003 RMK AO1 SLP252
METAR CYNL 012000Z AUTO 04005KT 9SM SCT035 M18/M27 A3003 RMK AO1 SLP252
METAR CYNL 011900Z AUTO 05008KT 010V080 9SM CLR M19/M27 A3003 RMK AO1 SLP251
METAR CYNL 011800Z AUTO 05008KT 9SM CLR M20/M27 A3003 RMK AO1 SLP248
METAR CYNL 011700Z AUTO 00006KT 9SM SCT022 M20/M27 A3003 RMK AO1 SLP248
METAR CYNL 011600Z AUTO 01006KT 9SM CLR M21/M27 A3002 RMK AO1 SLP245
METAR CYNL 011500Z AUTO ///// 9SM CLR M23/M28 A3002 RMK AO1 SLP242
METAR CYNL 011400Z AUTO ///// 9SM CLR M25/M29 A3001 RMK AO1 SLP241
METAR CYNL 011300Z AUTO ///// 9SM CLR M28/M32 A3000 RMK AO1 SLP241
METAR CYNL 011200Z AUTO ///// 9SM CLR M28/M32 A3000 RMK AO1 SLP237
METAR CYNL 011100Z AUTO ///// 9SM CLR M28/M32 A2999 RMK AO1 SLP233
METAR CYNL 011000Z AUTO ///// 9SM CLR M26/M30 A2998 RMK AO1 SLP228
METAR CYNL 010900Z AUTO ///// 9SM CLR M26/M29 A2998 RMK AO1 SLP225
METAR CYNL 010800Z AUTO 33003KT 9SM CLR M24/M28 A2997 RMK AO1 SLP219
METAR CYNL 010700Z AUTO ///// 9SM CLR M23/M27 A2998 RMK AO1 SLP219
SPECI CYNL 010632Z AUTO ///// 9SM SCT028 M22/M26 A2997 RMK AO1 SLP216
SPECI CYNL 010623Z AUTO ///// 9SM BKN029 M22/M26 A2997 RMK AO1 SLP215
SPECI CYNL 010621Z AUTO ///// 9SM SCT029 M22/M26 A2997 RMK AO1 SLP215